<?xml version="1.0" encoding="UTF-8" standalone="no" ?><gpx xmlns="http://www.topografix.com/GPX/1/1" xmlns:gpxx="http://www.garmin.com/xmlschemas/GpxExtensions/v3" xmlns:wptx1="http://www.garmin.com/xmlschemas/WaypointExtension/v1" xmlns:gpxtpx="http://www.garmin.com/xmlschemas/TrackPointExtension/v1" creator="GuideVTT.com" version="1.1" xmlns:xsi="http://www.w3.org/2001/XMLSchema-instance" xsi:schemaLocation="http://www.topografix.com/GPX/1/1 http://www.topografix.com/GPX/1/1/gpx.xsd http://www.garmin.com/xmlschemas/GpxExtensions/v3 http://www8.garmin.com/xmlschemas/GpxExtensionsv3.xsd http://www.garmin.com/xmlschemas/WaypointExtension/v1 http://www8.garmin.com/xmlschemas/WaypointExtensionv1.xsd http://www.garmin.com/xmlschemas/TrackPointExtension/v1 http://www.garmin.com/xmlschemas/TrackPointExtensionv1.xsd">
<metadata><link href="http://www.garmin.com"><text>Garmin International</text></link><time>2013-06-22T15:13:50Z</time></metadata>
<trk><name>55km.gpx</name><extensions><gpxx:TrackExtension><gpxx:DisplayColor>Cyan</gpxx:DisplayColor></gpxx:TrackExtension></extensions><trkseg>
<trkpt lat="19700101" lon="000000"><ele>0</ele><time>N-Unknown-45.069430T4.835663:0E:00Z</time></trkpt>
<trkpt lat="19700101" lon="000000"><ele>0</ele><time>N-Unknown-45.067765T4.834636:0E:00Z</time></trkpt>
<trkpt lat="19700101" lon="000000"><ele>0</ele><time>N-Unknown-45.067479T4.834369:0E:00Z</time></trkpt>
<trkpt lat="19700101" lon="000000"><ele>0</ele><time>N-Unknown-45.065491T4.834724:0E:00Z</time></trkpt>
<trkpt lat="19700101" lon="000000"><ele>0</ele><time>N-Unknown-45.064988T4.834067:0E:00Z</time></trkpt>
<trkpt lat="19700101" lon="000000"><ele>0</ele><time>N-Unknown-45.064680T4.833767:0E:00Z</time></trkpt>
<trkpt lat="19700101" lon="000000"><ele>0</ele><time>N-Unknown-45.064122T4.833551:0E:00Z</time></trkpt>
<trkpt lat="19700101" lon="000000"><ele>0</ele><time>N-Unknown-45.063412T4.834123:0E:00Z</time></trkpt>
<trkpt lat="19700101" lon="000000"><ele>0</ele><time>N-Unknown-45.060220T4.834011:0E:00Z</time></trkpt>
<trkpt lat="19700101" lon="000000"><ele>0</ele><time>N-Unknown-45.057548T4.832749:0E:00Z</time></trkpt>
<trkpt lat="19700101" lon="000000"><ele>0</ele><time>N-Unknown-45.056078T4.832112:0E:00Z</time></trkpt>
<trkpt lat="19700101" lon="000000"><ele>0</ele><time>N-Unknown-45.055250T4.831916:0E:00Z</time></trkpt>
<trkpt lat="19700101" lon="000000"><ele>0</ele><time>N-Unknown-45.053026T4.830737:0E:00Z</time></trkpt>
<trkpt lat="19700101" lon="000000"><ele>0</ele><time>N-Unknown-45.046790T4.828903:0E:00Z</time></trkpt>
<trkpt lat="19700101" lon="000000"><ele>0</ele><time>N-Unknown-45.046636T4.828769:0E:00Z</time></trkpt>
<trkpt lat="19700101" lon="000000"><ele>0</ele><time>N-Unknown-45.046348T4.827550:0E:00Z</time></trkpt>
<trkpt lat="19700101" lon="000000"><ele>0</ele><time>N-Unknown-45.046633T4.826864:0E:00Z</time></trkpt>
<trkpt lat="19700101" lon="000000"><ele>0</ele><time>N-Unknown-45.046603T4.826197:0E:00Z</time></trkpt>
<trkpt lat="19700101" lon="000000"><ele>0</ele><time>N-Unknown-45.046389T4.825711:0E:00Z</time></trkpt>
<trkpt lat="19700101" lon="000000"><ele>0</ele><time>N-Unknown-45.046173T4.824337:0E:00Z</time></trkpt>
<trkpt lat="19700101" lon="000000"><ele>0</ele><time>N-Unknown-45.045520T4.824339:0E:00Z</time></trkpt>
<trkpt lat="19700101" lon="000000"><ele>0</ele><time>N-Unknown-45.044412T4.824607:0E:00Z</time></trkpt>
<trkpt lat="19700101" lon="000000"><ele>0</ele><time>N-Unknown-45.044468T4.825117:0E:00Z</time></trkpt>
<trkpt lat="19700101" lon="000000"><ele>0</ele><time>N-Unknown-45.044282T4.825395:0E:00Z</time></trkpt>
<trkpt lat="19700101" lon="000000"><ele>0</ele><time>N-Unknown-45.043680T4.825114:0E:00Z</time></trkpt>
<trkpt lat="19700101" lon="000000"><ele>0</ele><time>N-Unknown-45.043176T4.824552:0E:00Z</time></trkpt>
<trkpt lat="19700101" lon="000000"><ele>0</ele><time>N-Unknown-45.043025T4.824228:0E:00Z</time></trkpt>
<trkpt lat="19700101" lon="000000"><ele>0</ele><time>N-Unknown-45.042780T4.824153:0E:00Z</time></trkpt>
<trkpt lat="19700101" lon="000000"><ele>0</ele><time>N-Unknown-45.042744T4.823739:0E:00Z</time></trkpt>
<trkpt lat="19700101" lon="000000"><ele>0</ele><time>N-Unknown-45.042468T4.823981:0E:00Z</time></trkpt>
<trkpt lat="19700101" lon="000000"><ele>0</ele><time>N-Unknown-45.042316T4.824736:0E:00Z</time></trkpt>
<trkpt lat="19700101" lon="000000"><ele>0</ele><time>N-Unknown-45.042677T4.825704:0E:00Z</time></trkpt>
<trkpt lat="19700101" lon="000000"><ele>0</ele><time>N-Unknown-45.042723T4.826690:0E:00Z</time></trkpt>
<trkpt lat="19700101" lon="000000"><ele>0</ele><time>N-Unknown-45.042571T4.827445:0E:00Z</time></trkpt>
<trkpt lat="19700101" lon="000000"><ele>0</ele><time>N-Unknown-45.041734T4.827629:0E:00Z</time></trkpt>
<trkpt lat="19700101" lon="000000"><ele>0</ele><time>N-Unknown-45.041283T4.827673:0E:00Z</time></trkpt>
<trkpt lat="19700101" lon="000000"><ele>0</ele><time>N-Unknown-45.038727T4.826289:0E:00Z</time></trkpt>
<trkpt lat="19700101" lon="000000"><ele>0</ele><time>N-Unknown-45.038889T4.826074:0E:00Z</time></trkpt>
<trkpt lat="19700101" lon="000000"><ele>0</ele><time>N-Unknown-45.038803T4.825880:0E:00Z</time></trkpt>
<trkpt lat="19700101" lon="000000"><ele>0</ele><time>N-Unknown-45.038770T4.825371:0E:00Z</time></trkpt>
<trkpt lat="19700101" lon="000000"><ele>0</ele><time>N-Unknown-45.039114T4.825069:0E:00Z</time></trkpt>
<trkpt lat="19700101" lon="000000"><ele>0</ele><time>N-Unknown-45.039308T4.825458:0E:00Z</time></trkpt>
<trkpt lat="19700101" lon="000000"><ele>0</ele><time>N-Unknown-45.041026T4.826106:0E:00Z</time></trkpt>
<trkpt lat="19700101" lon="000000"><ele>0</ele><time>N-Unknown-45.040294T4.825629:0E:00Z</time></trkpt>
<trkpt lat="19700101" lon="000000"><ele>0</ele><time>N-Unknown-45.040420T4.824016:0E:00Z</time></trkpt>
<trkpt lat="19700101" lon="000000"><ele>0</ele><time>N-Unknown-45.040300T4.823345:0E:00Z</time></trkpt>
<trkpt lat="19700101" lon="000000"><ele>0</ele><time>N-Unknown-45.040047T4.823255:0E:00Z</time></trkpt>
<trkpt lat="19700101" lon="000000"><ele>0</ele><time>N-Unknown-45.039746T4.823031:0E:00Z</time></trkpt>
<trkpt lat="19700101" lon="000000"><ele>0</ele><time>N-Unknown-45.039522T4.823024:0E:00Z</time></trkpt>
<trkpt lat="19700101" lon="000000"><ele>0</ele><time>N-Unknown-45.038640T4.823134:0E:00Z</time></trkpt>
<trkpt lat="19700101" lon="000000"><ele>0</ele><time>N-Unknown-45.038056T4.823069:0E:00Z</time></trkpt>
<trkpt lat="19700101" lon="000000"><ele>0</ele><time>N-Unknown-45.037841T4.822941:0E:00Z</time></trkpt>
<trkpt lat="19700101" lon="000000"><ele>0</ele><time>N-Unknown-45.037723T4.822941:0E:00Z</time></trkpt>
<trkpt lat="19700101" lon="000000"><ele>0</ele><time>N-Unknown-45.037513T4.823089:0E:00Z</time></trkpt>
<trkpt lat="19700101" lon="000000"><ele>0</ele><time>N-Unknown-45.037126T4.823117:0E:00Z</time></trkpt>
<trkpt lat="19700101" lon="000000"><ele>0</ele><time>N-Unknown-45.036822T4.823202:0E:00Z</time></trkpt>
<trkpt lat="19700101" lon="000000"><ele>0</ele><time>N-Unknown-45.036547T4.823136:0E:00Z</time></trkpt>
<trkpt lat="19700101" lon="000000"><ele>0</ele><time>N-Unknown-45.036310T4.823011:0E:00Z</time></trkpt>
<trkpt lat="19700101" lon="000000"><ele>0</ele><time>N-Unknown-45.036081T4.823094:0E:00Z</time></trkpt>
<trkpt lat="19700101" lon="000000"><ele>0</ele><time>N-Unknown-45.035842T4.823120:0E:00Z</time></trkpt>
<trkpt lat="19700101" lon="000000"><ele>0</ele><time>N-Unknown-45.035074T4.823473:0E:00Z</time></trkpt>
<trkpt lat="19700101" lon="000000"><ele>0</ele><time>N-Unknown-45.034805T4.823487:0E:00Z</time></trkpt>
<trkpt lat="19700101" lon="000000"><ele>0</ele><time>N-Unknown-45.034380T4.823220:0E:00Z</time></trkpt>
<trkpt lat="19700101" lon="000000"><ele>0</ele><time>N-Unknown-45.034054T4.822722:0E:00Z</time></trkpt>
<trkpt lat="19700101" lon="000000"><ele>0</ele><time>N-Unknown-45.033943T4.822693:0E:00Z</time></trkpt>
<trkpt lat="19700101" lon="000000"><ele>0</ele><time>N-Unknown-45.033564T4.823146:0E:00Z</time></trkpt>
<trkpt lat="19700101" lon="000000"><ele>0</ele><time>N-Unknown-45.033285T4.823296:0E:00Z</time></trkpt>
<trkpt lat="19700101" lon="000000"><ele>0</ele><time>N-Unknown-45.032885T4.823236:0E:00Z</time></trkpt>
<trkpt lat="19700101" lon="000000"><ele>0</ele><time>N-Unknown-45.032667T4.823136:0E:00Z</time></trkpt>
<trkpt lat="19700101" lon="000000"><ele>0</ele><time>N-Unknown-45.032427T4.823350:0E:00Z</time></trkpt>
<trkpt lat="19700101" lon="000000"><ele>0</ele><time>N-Unknown-45.032392T4.823509:0E:00Z</time></trkpt>
<trkpt lat="19700101" lon="000000"><ele>0</ele><time>N-Unknown-45.032579T4.824176:0E:00Z</time></trkpt>
<trkpt lat="19700101" lon="000000"><ele>0</ele><time>N-Unknown-45.032510T4.824380:0E:00Z</time></trkpt>
<trkpt lat="19700101" lon="000000"><ele>0</ele><time>N-Unknown-45.032386T4.824442:0E:00Z</time></trkpt>
<trkpt lat="19700101" lon="000000"><ele>0</ele><time>N-Unknown-45.031445T4.824229:0E:00Z</time></trkpt>
<trkpt lat="19700101" lon="000000"><ele>0</ele><time>N-Unknown-45.031319T4.824276:0E:00Z</time></trkpt>
<trkpt lat="19700101" lon="000000"><ele>0</ele><time>N-Unknown-45.031090T4.824541:0E:00Z</time></trkpt>
<trkpt lat="19700101" lon="000000"><ele>0</ele><time>N-Unknown-45.030827T4.824695:0E:00Z</time></trkpt>
<trkpt lat="19700101" lon="000000"><ele>0</ele><time>N-Unknown-45.030667T4.824913:0E:00Z</time></trkpt>
<trkpt lat="19700101" lon="000000"><ele>0</ele><time>N-Unknown-45.029863T4.825098:0E:00Z</time></trkpt>
<trkpt lat="19700101" lon="000000"><ele>0</ele><time>N-Unknown-45.029762T4.825046:0E:00Z</time></trkpt>
<trkpt lat="19700101" lon="000000"><ele>0</ele><time>N-Unknown-45.029814T4.824090:0E:00Z</time></trkpt>
<trkpt lat="19700101" lon="000000"><ele>0</ele><time>N-Unknown-45.029888T4.824001:0E:00Z</time></trkpt>
<trkpt lat="19700101" lon="000000"><ele>0</ele><time>N-Unknown-45.030188T4.823921:0E:00Z</time></trkpt>
<trkpt lat="19700101" lon="000000"><ele>0</ele><time>N-Unknown-45.030445T4.823679:0E:00Z</time></trkpt>
<trkpt lat="19700101" lon="000000"><ele>0</ele><time>N-Unknown-45.030620T4.822801:0E:00Z</time></trkpt>
<trkpt lat="19700101" lon="000000"><ele>0</ele><time>N-Unknown-45.030448T4.822575:0E:00Z</time></trkpt>
<trkpt lat="19700101" lon="000000"><ele>0</ele><time>N-Unknown-45.030101T4.822369:0E:00Z</time></trkpt>
<trkpt lat="19700101" lon="000000"><ele>0</ele><time>N-Unknown-45.029777T4.821206:0E:00Z</time></trkpt>
<trkpt lat="19700101" lon="000000"><ele>0</ele><time>N-Unknown-45.029487T4.820742:0E:00Z</time></trkpt>
<trkpt lat="19700101" lon="000000"><ele>0</ele><time>N-Unknown-45.029458T4.820605:0E:00Z</time></trkpt>
<trkpt lat="19700101" lon="000000"><ele>0</ele><time>N-Unknown-45.029685T4.820307:0E:00Z</time></trkpt>
<trkpt lat="19700101" lon="000000"><ele>0</ele><time>N-Unknown-45.029714T4.820164:0E:00Z</time></trkpt>
<trkpt lat="19700101" lon="000000"><ele>0</ele><time>N-Unknown-45.029503T4.819758:0E:00Z</time></trkpt>
<trkpt lat="19700101" lon="000000"><ele>0</ele><time>N-Unknown-45.029045T4.819162:0E:00Z</time></trkpt>
<trkpt lat="19700101" lon="000000"><ele>0</ele><time>N-Unknown-45.028762T4.818997:0E:00Z</time></trkpt>
<trkpt lat="19700101" lon="000000"><ele>0</ele><time>N-Unknown-45.028739T4.818736:0E:00Z</time></trkpt>
<trkpt lat="19700101" lon="000000"><ele>0</ele><time>N-Unknown-45.028930T4.818463:0E:00Z</time></trkpt>
<trkpt lat="19700101" lon="000000"><ele>0</ele><time>N-Unknown-45.029204T4.818277:0E:00Z</time></trkpt>
<trkpt lat="19700101" lon="000000"><ele>0</ele><time>N-Unknown-45.029583T4.818171:0E:00Z</time></trkpt>
<trkpt lat="19700101" lon="000000"><ele>0</ele><time>N-Unknown-45.030082T4.817941:0E:00Z</time></trkpt>
<trkpt lat="19700101" lon="000000"><ele>0</ele><time>N-Unknown-45.030330T4.817891:0E:00Z</time></trkpt>
<trkpt lat="19700101" lon="000000"><ele>0</ele><time>N-Unknown-45.030919T4.817901:0E:00Z</time></trkpt>
<trkpt lat="19700101" lon="000000"><ele>0</ele><time>N-Unknown-45.031282T4.817646:0E:00Z</time></trkpt>
<trkpt lat="19700101" lon="000000"><ele>0</ele><time>N-Unknown-45.032718T4.817029:0E:00Z</time></trkpt>
<trkpt lat="19700101" lon="000000"><ele>0</ele><time>N-Unknown-45.032797T4.816937:0E:00Z</time></trkpt>
<trkpt lat="19700101" lon="000000"><ele>0</ele><time>N-Unknown-45.032599T4.816050:0E:00Z</time></trkpt>
<trkpt lat="19700101" lon="000000"><ele>0</ele><time>N-Unknown-45.032958T4.815451:0E:00Z</time></trkpt>
<trkpt lat="19700101" lon="000000"><ele>0</ele><time>N-Unknown-45.032994T4.814686:0E:00Z</time></trkpt>
<trkpt lat="19700101" lon="000000"><ele>0</ele><time>N-Unknown-45.032851T4.814414:0E:00Z</time></trkpt>
<trkpt lat="19700101" lon="000000"><ele>0</ele><time>N-Unknown-45.032470T4.814251:0E:00Z</time></trkpt>
<trkpt lat="19700101" lon="000000"><ele>0</ele><time>N-Unknown-45.032330T4.814041:0E:00Z</time></trkpt>
<trkpt lat="19700101" lon="000000"><ele>0</ele><time>N-Unknown-45.032177T4.813592:0E:00Z</time></trkpt>
<trkpt lat="19700101" lon="000000"><ele>0</ele><time>N-Unknown-45.031926T4.813241:0E:00Z</time></trkpt>
<trkpt lat="19700101" lon="000000"><ele>0</ele><time>N-Unknown-45.031740T4.812418:0E:00Z</time></trkpt>
<trkpt lat="19700101" lon="000000"><ele>0</ele><time>N-Unknown-45.031479T4.811961:0E:00Z</time></trkpt>
<trkpt lat="19700101" lon="000000"><ele>0</ele><time>N-Unknown-45.031446T4.811711:0E:00Z</time></trkpt>
<trkpt lat="19700101" lon="000000"><ele>0</ele><time>N-Unknown-45.031575T4.811493:0E:00Z</time></trkpt>
<trkpt lat="19700101" lon="000000"><ele>0</ele><time>N-Unknown-45.031927T4.811251:0E:00Z</time></trkpt>
<trkpt lat="19700101" lon="000000"><ele>0</ele><time>N-Unknown-45.032121T4.810853:0E:00Z</time></trkpt>
<trkpt lat="19700101" lon="000000"><ele>0</ele><time>N-Unknown-45.032098T4.810574:0E:00Z</time></trkpt>
<trkpt lat="19700101" lon="000000"><ele>0</ele><time>N-Unknown-45.031987T4.810330:0E:00Z</time></trkpt>
<trkpt lat="19700101" lon="000000"><ele>0</ele><time>N-Unknown-45.032100T4.809981:0E:00Z</time></trkpt>
<trkpt lat="19700101" lon="000000"><ele>0</ele><time>N-Unknown-45.032046T4.809639:0E:00Z</time></trkpt>
<trkpt lat="19700101" lon="000000"><ele>0</ele><time>N-Unknown-45.031847T4.809361:0E:00Z</time></trkpt>
<trkpt lat="19700101" lon="000000"><ele>0</ele><time>N-Unknown-45.031396T4.809063:0E:00Z</time></trkpt>
<trkpt lat="19700101" lon="000000"><ele>0</ele><time>N-Unknown-45.030997T4.808952:0E:00Z</time></trkpt>
<trkpt lat="19700101" lon="000000"><ele>0</ele><time>N-Unknown-45.030816T4.808848:0E:00Z</time></trkpt>
<trkpt lat="19700101" lon="000000"><ele>0</ele><time>N-Unknown-45.030773T4.808742:0E:00Z</time></trkpt>
<trkpt lat="19700101" lon="000000"><ele>0</ele><time>N-Unknown-45.030996T4.808525:0E:00Z</time></trkpt>
<trkpt lat="19700101" lon="000000"><ele>0</ele><time>N-Unknown-45.031041T4.807891:0E:00Z</time></trkpt>
<trkpt lat="19700101" lon="000000"><ele>0</ele><time>N-Unknown-45.030845T4.807111:0E:00Z</time></trkpt>
<trkpt lat="19700101" lon="000000"><ele>0</ele><time>N-Unknown-45.030120T4.805295:0E:00Z</time></trkpt>
<trkpt lat="19700101" lon="000000"><ele>0</ele><time>N-Unknown-45.029986T4.804490:0E:00Z</time></trkpt>
<trkpt lat="19700101" lon="000000"><ele>0</ele><time>N-Unknown-45.029320T4.803308:0E:00Z</time></trkpt>
<trkpt lat="19700101" lon="000000"><ele>0</ele><time>N-Unknown-45.028729T4.801105:0E:00Z</time></trkpt>
<trkpt lat="19700101" lon="000000"><ele>0</ele><time>N-Unknown-45.028627T4.801015:0E:00Z</time></trkpt>
<trkpt lat="19700101" lon="000000"><ele>0</ele><time>N-Unknown-45.028489T4.800978:0E:00Z</time></trkpt>
<trkpt lat="19700101" lon="000000"><ele>0</ele><time>N-Unknown-45.028051T4.801076:0E:00Z</time></trkpt>
<trkpt lat="19700101" lon="000000"><ele>0</ele><time>N-Unknown-45.027618T4.800899:0E:00Z</time></trkpt>
<trkpt lat="19700101" lon="000000"><ele>0</ele><time>N-Unknown-45.027487T4.800884:0E:00Z</time></trkpt>
<trkpt lat="19700101" lon="000000"><ele>0</ele><time>N-Unknown-45.026910T4.802600:0E:00Z</time></trkpt>
<trkpt lat="19700101" lon="000000"><ele>0</ele><time>N-Unknown-45.026751T4.802856:0E:00Z</time></trkpt>
<trkpt lat="19700101" lon="000000"><ele>0</ele><time>N-Unknown-45.026559T4.802761:0E:00Z</time></trkpt>
<trkpt lat="19700101" lon="000000"><ele>0</ele><time>N-Unknown-45.026122T4.802218:0E:00Z</time></trkpt>
<trkpt lat="19700101" lon="000000"><ele>0</ele><time>N-Unknown-45.026014T4.802180:0E:00Z</time></trkpt>
<trkpt lat="19700101" lon="000000"><ele>0</ele><time>N-Unknown-45.025926T4.802037:0E:00Z</time></trkpt>
<trkpt lat="19700101" lon="000000"><ele>0</ele><time>N-Unknown-45.025347T4.801847:0E:00Z</time></trkpt>
<trkpt lat="19700101" lon="000000"><ele>0</ele><time>N-Unknown-45.024872T4.801411:0E:00Z</time></trkpt>
<trkpt lat="19700101" lon="000000"><ele>0</ele><time>N-Unknown-45.024742T4.801180:0E:00Z</time></trkpt>
<trkpt lat="19700101" lon="000000"><ele>0</ele><time>N-Unknown-45.024636T4.801146:0E:00Z</time></trkpt>
<trkpt lat="19700101" lon="000000"><ele>0</ele><time>N-Unknown-45.024331T4.800488:0E:00Z</time></trkpt>
<trkpt lat="19700101" lon="000000"><ele>0</ele><time>N-Unknown-45.023882T4.799878:0E:00Z</time></trkpt>
<trkpt lat="19700101" lon="000000"><ele>0</ele><time>N-Unknown-45.023329T4.799643:0E:00Z</time></trkpt>
<trkpt lat="19700101" lon="000000"><ele>0</ele><time>N-Unknown-45.022565T4.799535:0E:00Z</time></trkpt>
<trkpt lat="19700101" lon="000000"><ele>0</ele><time>N-Unknown-45.022097T4.799678:0E:00Z</time></trkpt>
<trkpt lat="19700101" lon="000000"><ele>0</ele><time>N-Unknown-45.021171T4.799271:0E:00Z</time></trkpt>
<trkpt lat="19700101" lon="000000"><ele>0</ele><time>N-Unknown-45.020637T4.798972:0E:00Z</time></trkpt>
<trkpt lat="19700101" lon="000000"><ele>0</ele><time>N-Unknown-45.020316T4.798866:0E:00Z</time></trkpt>
<trkpt lat="19700101" lon="000000"><ele>0</ele><time>N-Unknown-45.019164T4.797562:0E:00Z</time></trkpt>
<trkpt lat="19700101" lon="000000"><ele>0</ele><time>N-Unknown-45.018677T4.797166:0E:00Z</time></trkpt>
<trkpt lat="19700101" lon="000000"><ele>0</ele><time>N-Unknown-45.018545T4.796965:0E:00Z</time></trkpt>
<trkpt lat="19700101" lon="000000"><ele>0</ele><time>N-Unknown-45.017465T4.796325:0E:00Z</time></trkpt>
<trkpt lat="19700101" lon="000000"><ele>0</ele><time>N-Unknown-45.016591T4.795977:0E:00Z</time></trkpt>
<trkpt lat="19700101" lon="000000"><ele>0</ele><time>N-Unknown-45.015545T4.793696:0E:00Z</time></trkpt>
<trkpt lat="19700101" lon="000000"><ele>0</ele><time>N-Unknown-45.014991T4.793025:0E:00Z</time></trkpt>
<trkpt lat="19700101" lon="000000"><ele>0</ele><time>N-Unknown-45.014338T4.792346:0E:00Z</time></trkpt>
<trkpt lat="19700101" lon="000000"><ele>0</ele><time>N-Unknown-45.013844T4.791675:0E:00Z</time></trkpt>
<trkpt lat="19700101" lon="000000"><ele>0</ele><time>N-Unknown-45.013652T4.791014:0E:00Z</time></trkpt>
<trkpt lat="19700101" lon="000000"><ele>0</ele><time>N-Unknown-45.013103T4.791904:0E:00Z</time></trkpt>
<trkpt lat="19700101" lon="000000"><ele>0</ele><time>N-Unknown-45.012841T4.792558:0E:00Z</time></trkpt>
<trkpt lat="19700101" lon="000000"><ele>0</ele><time>N-Unknown-45.012547T4.792640:0E:00Z</time></trkpt>
<trkpt lat="19700101" lon="000000"><ele>0</ele><time>N-Unknown-45.012101T4.792430:0E:00Z</time></trkpt>
<trkpt lat="19700101" lon="000000"><ele>0</ele><time>N-Unknown-45.011642T4.792854:0E:00Z</time></trkpt>
<trkpt lat="19700101" lon="000000"><ele>0</ele><time>N-Unknown-45.011379T4.793540:0E:00Z</time></trkpt>
<trkpt lat="19700101" lon="000000"><ele>0</ele><time>N-Unknown-45.010675T4.793858:0E:00Z</time></trkpt>
<trkpt lat="19700101" lon="000000"><ele>0</ele><time>N-Unknown-45.010440T4.794324:0E:00Z</time></trkpt>
<trkpt lat="19700101" lon="000000"><ele>0</ele><time>N-Unknown-45.009935T4.794745:0E:00Z</time></trkpt>
<trkpt lat="19700101" lon="000000"><ele>0</ele><time>N-Unknown-45.009517T4.795330:0E:00Z</time></trkpt>
<trkpt lat="19700101" lon="000000"><ele>0</ele><time>N-Unknown-45.009401T4.794468:0E:00Z</time></trkpt>
<trkpt lat="19700101" lon="000000"><ele>0</ele><time>N-Unknown-45.008246T4.793815:0E:00Z</time></trkpt>
<trkpt lat="19700101" lon="000000"><ele>0</ele><time>N-Unknown-45.007813T4.794081:0E:00Z</time></trkpt>
<trkpt lat="19700101" lon="000000"><ele>0</ele><time>N-Unknown-45.006456T4.793387:0E:00Z</time></trkpt>
<trkpt lat="19700101" lon="000000"><ele>0</ele><time>N-Unknown-45.004998T4.793164:0E:00Z</time></trkpt>
<trkpt lat="19700101" lon="000000"><ele>0</ele><time>N-Unknown-45.004642T4.794005:0E:00Z</time></trkpt>
<trkpt lat="19700101" lon="000000"><ele>0</ele><time>N-Unknown-45.004056T4.794074:0E:00Z</time></trkpt>
<trkpt lat="19700101" lon="000000"><ele>0</ele><time>N-Unknown-45.003654T4.793898:0E:00Z</time></trkpt>
<trkpt lat="19700101" lon="000000"><ele>0</ele><time>N-Unknown-45.002905T4.794214:0E:00Z</time></trkpt>
<trkpt lat="19700101" lon="000000"><ele>0</ele><time>N-Unknown-45.002825T4.794781:0E:00Z</time></trkpt>
<trkpt lat="19700101" lon="000000"><ele>0</ele><time>N-Unknown-45.004071T4.797436:0E:00Z</time></trkpt>
<trkpt lat="19700101" lon="000000"><ele>0</ele><time>N-Unknown-45.005701T4.802012:0E:00Z</time></trkpt>
<trkpt lat="19700101" lon="000000"><ele>0</ele><time>N-Unknown-45.005145T4.801733:0E:00Z</time></trkpt>
<trkpt lat="19700101" lon="000000"><ele>0</ele><time>N-Unknown-45.004714T4.800890:0E:00Z</time></trkpt>
<trkpt lat="19700101" lon="000000"><ele>0</ele><time>N-Unknown-45.004692T4.801872:0E:00Z</time></trkpt>
<trkpt lat="19700101" lon="000000"><ele>0</ele><time>N-Unknown-45.004883T4.802388:0E:00Z</time></trkpt>
<trkpt lat="19700101" lon="000000"><ele>0</ele><time>N-Unknown-45.004558T4.802849:0E:00Z</time></trkpt>
<trkpt lat="19700101" lon="000000"><ele>0</ele><time>N-Unknown-45.004284T4.802012:0E:00Z</time></trkpt>
<trkpt lat="19700101" lon="000000"><ele>0</ele><time>N-Unknown-45.003974T4.801777:0E:00Z</time></trkpt>
<trkpt lat="19700101" lon="000000"><ele>0</ele><time>N-Unknown-45.003863T4.802723:0E:00Z</time></trkpt>
<trkpt lat="19700101" lon="000000"><ele>0</ele><time>N-Unknown-45.003671T4.803286:0E:00Z</time></trkpt>
<trkpt lat="19700101" lon="000000"><ele>0</ele><time>N-Unknown-45.003397T4.803464:0E:00Z</time></trkpt>
<trkpt lat="19700101" lon="000000"><ele>0</ele><time>N-Unknown-45.003132T4.804245:0E:00Z</time></trkpt>
<trkpt lat="19700101" lon="000000"><ele>0</ele><time>N-Unknown-45.002904T4.804362:0E:00Z</time></trkpt>
<trkpt lat="19700101" lon="000000"><ele>0</ele><time>N-Unknown-45.002458T4.804183:0E:00Z</time></trkpt>
<trkpt lat="19700101" lon="000000"><ele>0</ele><time>N-Unknown-45.001240T4.803337:0E:00Z</time></trkpt>
<trkpt lat="19700101" lon="000000"><ele>0</ele><time>N-Unknown-45.001048T4.802852:0E:00Z</time></trkpt>
<trkpt lat="19700101" lon="000000"><ele>0</ele><time>N-Unknown-45.000641T4.802930:0E:00Z</time></trkpt>
<trkpt lat="19700101" lon="000000"><ele>0</ele><time>N-Unknown-45.000136T4.802400:0E:00Z</time></trkpt>
<trkpt lat="19700101" lon="000000"><ele>0</ele><time>N-Unknown-45.000656T4.802264:0E:00Z</time></trkpt>
<trkpt lat="19700101" lon="000000"><ele>0</ele><time>N-Unknown-45.000840T4.802114:0E:00Z</time></trkpt>
<trkpt lat="19700101" lon="000000"><ele>0</ele><time>N-Unknown-45.000915T4.801737:0E:00Z</time></trkpt>
<trkpt lat="19700101" lon="000000"><ele>0</ele><time>N-Unknown-45.001233T4.801624:0E:00Z</time></trkpt>
<trkpt lat="19700101" lon="000000"><ele>0</ele><time>N-Unknown-45.000989T4.801454:0E:00Z</time></trkpt>
<trkpt lat="19700101" lon="000000"><ele>0</ele><time>N-Unknown-45.000627T4.801534:0E:00Z</time></trkpt>
<trkpt lat="19700101" lon="000000"><ele>0</ele><time>N-Unknown-45.000725T4.801189:0E:00Z</time></trkpt>
<trkpt lat="19700101" lon="000000"><ele>0</ele><time>N-Unknown-45.001300T4.800644:0E:00Z</time></trkpt>
<trkpt lat="19700101" lon="000000"><ele>0</ele><time>N-Unknown-45.000521T4.800260:0E:00Z</time></trkpt>
<trkpt lat="19700101" lon="000000"><ele>0</ele><time>N-Unknown-44.998841T4.798886:0E:00Z</time></trkpt>
<trkpt lat="19700101" lon="000000"><ele>0</ele><time>N-Unknown-44.998022T4.797296:0E:00Z</time></trkpt>
<trkpt lat="19700101" lon="000000"><ele>0</ele><time>N-Unknown-44.998099T4.796856:0E:00Z</time></trkpt>
<trkpt lat="19700101" lon="000000"><ele>0</ele><time>N-Unknown-44.998060T4.796600:0E:00Z</time></trkpt>
<trkpt lat="19700101" lon="000000"><ele>0</ele><time>N-Unknown-44.997701T4.796553:0E:00Z</time></trkpt>
<trkpt lat="19700101" lon="000000"><ele>0</ele><time>N-Unknown-44.997525T4.796355:0E:00Z</time></trkpt>
<trkpt lat="19700101" lon="000000"><ele>0</ele><time>N-Unknown-44.996388T4.795892:0E:00Z</time></trkpt>
<trkpt lat="19700101" lon="000000"><ele>0</ele><time>N-Unknown-44.995681T4.795322:0E:00Z</time></trkpt>
<trkpt lat="19700101" lon="000000"><ele>0</ele><time>N-Unknown-44.995851T4.795773:0E:00Z</time></trkpt>
<trkpt lat="19700101" lon="000000"><ele>0</ele><time>N-Unknown-44.995724T4.796402:0E:00Z</time></trkpt>
<trkpt lat="19700101" lon="000000"><ele>0</ele><time>N-Unknown-44.995561T4.796680:0E:00Z</time></trkpt>
<trkpt lat="19700101" lon="000000"><ele>0</ele><time>N-Unknown-44.995486T4.796994:0E:00Z</time></trkpt>
<trkpt lat="19700101" lon="000000"><ele>0</ele><time>N-Unknown-44.995278T4.797239:0E:00Z</time></trkpt>
<trkpt lat="19700101" lon="000000"><ele>0</ele><time>N-Unknown-44.995627T4.797730:0E:00Z</time></trkpt>
<trkpt lat="19700101" lon="000000"><ele>0</ele><time>N-Unknown-44.996155T4.798292:0E:00Z</time></trkpt>
<trkpt lat="19700101" lon="000000"><ele>0</ele><time>N-Unknown-44.996279T4.798773:0E:00Z</time></trkpt>
<trkpt lat="19700101" lon="000000"><ele>0</ele><time>N-Unknown-44.994737T4.798324:0E:00Z</time></trkpt>
<trkpt lat="19700101" lon="000000"><ele>0</ele><time>N-Unknown-44.994255T4.797732:0E:00Z</time></trkpt>
<trkpt lat="19700101" lon="000000"><ele>0</ele><time>N-Unknown-44.993865T4.798064:0E:00Z</time></trkpt>
<trkpt lat="19700101" lon="000000"><ele>0</ele><time>N-Unknown-44.993087T4.797649:0E:00Z</time></trkpt>
<trkpt lat="19700101" lon="000000"><ele>0</ele><time>N-Unknown-44.992210T4.797642:0E:00Z</time></trkpt>
<trkpt lat="19700101" lon="000000"><ele>0</ele><time>N-Unknown-44.992387T4.797745:0E:00Z</time></trkpt>
<trkpt lat="19700101" lon="000000"><ele>0</ele><time>N-Unknown-44.992295T4.797868:0E:00Z</time></trkpt>
<trkpt lat="19700101" lon="000000"><ele>0</ele><time>N-Unknown-44.990942T4.796984:0E:00Z</time></trkpt>
<trkpt lat="19700101" lon="000000"><ele>0</ele><time>N-Unknown-44.990568T4.796587:0E:00Z</time></trkpt>
<trkpt lat="19700101" lon="000000"><ele>0</ele><time>N-Unknown-44.990098T4.796503:0E:00Z</time></trkpt>
<trkpt lat="19700101" lon="000000"><ele>0</ele><time>N-Unknown-44.989598T4.796703:0E:00Z</time></trkpt>
<trkpt lat="19700101" lon="000000"><ele>0</ele><time>N-Unknown-44.989606T4.796354:0E:00Z</time></trkpt>
<trkpt lat="19700101" lon="000000"><ele>0</ele><time>N-Unknown-44.988583T4.795802:0E:00Z</time></trkpt>
<trkpt lat="19700101" lon="000000"><ele>0</ele><time>N-Unknown-44.988159T4.795656:0E:00Z</time></trkpt>
<trkpt lat="19700101" lon="000000"><ele>0</ele><time>N-Unknown-44.989045T4.796298:0E:00Z</time></trkpt>
<trkpt lat="19700101" lon="000000"><ele>0</ele><time>N-Unknown-44.988698T4.797741:0E:00Z</time></trkpt>
<trkpt lat="19700101" lon="000000"><ele>0</ele><time>N-Unknown-44.989729T4.797881:0E:00Z</time></trkpt>
<trkpt lat="19700101" lon="000000"><ele>0</ele><time>N-Unknown-44.990038T4.799163:0E:00Z</time></trkpt>
<trkpt lat="19700101" lon="000000"><ele>0</ele><time>N-Unknown-44.990704T4.799573:0E:00Z</time></trkpt>
<trkpt lat="19700101" lon="000000"><ele>0</ele><time>N-Unknown-44.990358T4.800985:0E:00Z</time></trkpt>
<trkpt lat="19700101" lon="000000"><ele>0</ele><time>N-Unknown-44.991635T4.801200:0E:00Z</time></trkpt>
<trkpt lat="19700101" lon="000000"><ele>0</ele><time>N-Unknown-44.991788T4.802411:0E:00Z</time></trkpt>
<trkpt lat="19700101" lon="000000"><ele>0</ele><time>N-Unknown-44.991242T4.801689:0E:00Z</time></trkpt>
<trkpt lat="19700101" lon="000000"><ele>0</ele><time>N-Unknown-44.989626T4.801523:0E:00Z</time></trkpt>
<trkpt lat="19700101" lon="000000"><ele>0</ele><time>N-Unknown-44.989316T4.800273:0E:00Z</time></trkpt>
<trkpt lat="19700101" lon="000000"><ele>0</ele><time>N-Unknown-44.987770T4.800014:0E:00Z</time></trkpt>
<trkpt lat="19700101" lon="000000"><ele>0</ele><time>N-Unknown-44.985992T4.798002:0E:00Z</time></trkpt>
<trkpt lat="19700101" lon="000000"><ele>0</ele><time>N-Unknown-44.983852T4.798129:0E:00Z</time></trkpt>
<trkpt lat="19700101" lon="000000"><ele>0</ele><time>N-Unknown-44.983359T4.798044:0E:00Z</time></trkpt>
<trkpt lat="19700101" lon="000000"><ele>0</ele><time>N-Unknown-44.983144T4.797591:0E:00Z</time></trkpt>
<trkpt lat="19700101" lon="000000"><ele>0</ele><time>N-Unknown-44.983056T4.798506:0E:00Z</time></trkpt>
<trkpt lat="19700101" lon="000000"><ele>0</ele><time>N-Unknown-44.983209T4.798703:0E:00Z</time></trkpt>
<trkpt lat="19700101" lon="000000"><ele>0</ele><time>N-Unknown-44.983388T4.799757:0E:00Z</time></trkpt>
<trkpt lat="19700101" lon="000000"><ele>0</ele><time>N-Unknown-44.983607T4.800052:0E:00Z</time></trkpt>
<trkpt lat="19700101" lon="000000"><ele>0</ele><time>N-Unknown-44.981961T4.802230:0E:00Z</time></trkpt>
<trkpt lat="19700101" lon="000000"><ele>0</ele><time>N-Unknown-44.981744T4.803869:0E:00Z</time></trkpt>
<trkpt lat="19700101" lon="000000"><ele>0</ele><time>N-Unknown-44.981912T4.804416:0E:00Z</time></trkpt>
<trkpt lat="19700101" lon="000000"><ele>0</ele><time>N-Unknown-44.981552T4.804400:0E:00Z</time></trkpt>
<trkpt lat="19700101" lon="000000"><ele>0</ele><time>N-Unknown-44.980663T4.804931:0E:00Z</time></trkpt>
<trkpt lat="19700101" lon="000000"><ele>0</ele><time>N-Unknown-44.980768T4.806267:0E:00Z</time></trkpt>
<trkpt lat="19700101" lon="000000"><ele>0</ele><time>N-Unknown-44.979785T4.805970:0E:00Z</time></trkpt>
<trkpt lat="19700101" lon="000000"><ele>0</ele><time>N-Unknown-44.979461T4.805385:0E:00Z</time></trkpt>
<trkpt lat="19700101" lon="000000"><ele>0</ele><time>N-Unknown-44.979585T4.804851:0E:00Z</time></trkpt>
<trkpt lat="19700101" lon="000000"><ele>0</ele><time>N-Unknown-44.979039T4.804098:0E:00Z</time></trkpt>
<trkpt lat="19700101" lon="000000"><ele>0</ele><time>N-Unknown-44.978482T4.804866:0E:00Z</time></trkpt>
<trkpt lat="19700101" lon="000000"><ele>0</ele><time>N-Unknown-44.978235T4.803841:0E:00Z</time></trkpt>
<trkpt lat="19700101" lon="000000"><ele>0</ele><time>N-Unknown-44.977783T4.803916:0E:00Z</time></trkpt>
<trkpt lat="19700101" lon="000000"><ele>0</ele><time>N-Unknown-44.977324T4.804339:0E:00Z</time></trkpt>
<trkpt lat="19700101" lon="000000"><ele>0</ele><time>N-Unknown-44.976387T4.803981:0E:00Z</time></trkpt>
<trkpt lat="19700101" lon="000000"><ele>0</ele><time>N-Unknown-44.975590T4.803407:0E:00Z</time></trkpt>
<trkpt lat="19700101" lon="000000"><ele>0</ele><time>N-Unknown-44.975005T4.804427:0E:00Z</time></trkpt>
<trkpt lat="19700101" lon="000000"><ele>0</ele><time>N-Unknown-44.974029T4.803782:0E:00Z</time></trkpt>
<trkpt lat="19700101" lon="000000"><ele>0</ele><time>N-Unknown-44.974161T4.802900:0E:00Z</time></trkpt>
<trkpt lat="19700101" lon="000000"><ele>0</ele><time>N-Unknown-44.973868T4.801936:0E:00Z</time></trkpt>
<trkpt lat="19700101" lon="000000"><ele>0</ele><time>N-Unknown-44.974317T4.801956:0E:00Z</time></trkpt>
<trkpt lat="19700101" lon="000000"><ele>0</ele><time>N-Unknown-44.973959T4.800862:0E:00Z</time></trkpt>
<trkpt lat="19700101" lon="000000"><ele>0</ele><time>N-Unknown-44.973354T4.800741:0E:00Z</time></trkpt>
<trkpt lat="19700101" lon="000000"><ele>0</ele><time>N-Unknown-44.973397T4.799823:0E:00Z</time></trkpt>
<trkpt lat="19700101" lon="000000"><ele>0</ele><time>N-Unknown-44.973664T4.799994:0E:00Z</time></trkpt>
<trkpt lat="19700101" lon="000000"><ele>0</ele><time>N-Unknown-44.974111T4.800108:0E:00Z</time></trkpt>
<trkpt lat="19700101" lon="000000"><ele>0</ele><time>N-Unknown-44.974896T4.800206:0E:00Z</time></trkpt>
<trkpt lat="19700101" lon="000000"><ele>0</ele><time>N-Unknown-44.975377T4.799847:0E:00Z</time></trkpt>
<trkpt lat="19700101" lon="000000"><ele>0</ele><time>N-Unknown-44.975255T4.799271:0E:00Z</time></trkpt>
<trkpt lat="19700101" lon="000000"><ele>0</ele><time>N-Unknown-44.976260T4.798587:0E:00Z</time></trkpt>
<trkpt lat="19700101" lon="000000"><ele>0</ele><time>N-Unknown-44.977460T4.798228:0E:00Z</time></trkpt>
<trkpt lat="19700101" lon="000000"><ele>0</ele><time>N-Unknown-44.979406T4.796697:0E:00Z</time></trkpt>
<trkpt lat="19700101" lon="000000"><ele>0</ele><time>N-Unknown-44.979438T4.796286:0E:00Z</time></trkpt>
<trkpt lat="19700101" lon="000000"><ele>0</ele><time>N-Unknown-44.980098T4.795935:0E:00Z</time></trkpt>
<trkpt lat="19700101" lon="000000"><ele>0</ele><time>N-Unknown-44.979643T4.793125:0E:00Z</time></trkpt>
<trkpt lat="19700101" lon="000000"><ele>0</ele><time>N-Unknown-44.979721T4.791639:0E:00Z</time></trkpt>
<trkpt lat="19700101" lon="000000"><ele>0</ele><time>N-Unknown-44.979507T4.791154:0E:00Z</time></trkpt>
<trkpt lat="19700101" lon="000000"><ele>0</ele><time>N-Unknown-44.979293T4.788609:0E:00Z</time></trkpt>
<trkpt lat="19700101" lon="000000"><ele>0</ele><time>N-Unknown-44.978771T4.787825:0E:00Z</time></trkpt>
<trkpt lat="19700101" lon="000000"><ele>0</ele><time>N-Unknown-44.978463T4.786480:0E:00Z</time></trkpt>
<trkpt lat="19700101" lon="000000"><ele>0</ele><time>N-Unknown-44.978739T4.786239:0E:00Z</time></trkpt>
<trkpt lat="19700101" lon="000000"><ele>0</ele><time>N-Unknown-44.979401T4.784778:0E:00Z</time></trkpt>
<trkpt lat="19700101" lon="000000"><ele>0</ele><time>N-Unknown-44.979759T4.784857:0E:00Z</time></trkpt>
<trkpt lat="19700101" lon="000000"><ele>0</ele><time>N-Unknown-44.980055T4.784711:0E:00Z</time></trkpt>
<trkpt lat="19700101" lon="000000"><ele>0</ele><time>N-Unknown-44.981080T4.785137:0E:00Z</time></trkpt>
<trkpt lat="19700101" lon="000000"><ele>0</ele><time>N-Unknown-44.982049T4.785084:0E:00Z</time></trkpt>
<trkpt lat="19700101" lon="000000"><ele>0</ele><time>N-Unknown-44.982293T4.782178:0E:00Z</time></trkpt>
<trkpt lat="19700101" lon="000000"><ele>0</ele><time>N-Unknown-44.984299T4.784073:0E:00Z</time></trkpt>
<trkpt lat="19700101" lon="000000"><ele>0</ele><time>N-Unknown-44.984334T4.785502:0E:00Z</time></trkpt>
<trkpt lat="19700101" lon="000000"><ele>0</ele><time>N-Unknown-44.985534T4.786188:0E:00Z</time></trkpt>
<trkpt lat="19700101" lon="000000"><ele>0</ele><time>N-Unknown-44.986789T4.786434:0E:00Z</time></trkpt>
<trkpt lat="19700101" lon="000000"><ele>0</ele><time>N-Unknown-44.987241T4.786327:0E:00Z</time></trkpt>
<trkpt lat="19700101" lon="000000"><ele>0</ele><time>N-Unknown-44.987208T4.785786:0E:00Z</time></trkpt>
<trkpt lat="19700101" lon="000000"><ele>0</ele><time>N-Unknown-44.987412T4.785732:0E:00Z</time></trkpt>
<trkpt lat="19700101" lon="000000"><ele>0</ele><time>N-Unknown-44.987698T4.785998:0E:00Z</time></trkpt>
<trkpt lat="19700101" lon="000000"><ele>0</ele><time>N-Unknown-44.987659T4.786757:0E:00Z</time></trkpt>
<trkpt lat="19700101" lon="000000"><ele>0</ele><time>N-Unknown-44.987487T4.787415:0E:00Z</time></trkpt>
<trkpt lat="19700101" lon="000000"><ele>0</ele><time>N-Unknown-44.987189T4.787656:0E:00Z</time></trkpt>
<trkpt lat="19700101" lon="000000"><ele>0</ele><time>N-Unknown-44.987710T4.787489:0E:00Z</time></trkpt>
<trkpt lat="19700101" lon="000000"><ele>0</ele><time>N-Unknown-44.988236T4.787131:0E:00Z</time></trkpt>
<trkpt lat="19700101" lon="000000"><ele>0</ele><time>N-Unknown-44.990256T4.787347:0E:00Z</time></trkpt>
<trkpt lat="19700101" lon="000000"><ele>0</ele><time>N-Unknown-44.990847T4.787056:0E:00Z</time></trkpt>
<trkpt lat="19700101" lon="000000"><ele>0</ele><time>N-Unknown-44.990905T4.787502:0E:00Z</time></trkpt>
<trkpt lat="19700101" lon="000000"><ele>0</ele><time>N-Unknown-44.990669T4.787967:0E:00Z</time></trkpt>
<trkpt lat="19700101" lon="000000"><ele>0</ele><time>N-Unknown-44.990170T4.788167:0E:00Z</time></trkpt>
<trkpt lat="19700101" lon="000000"><ele>0</ele><time>N-Unknown-44.990165T4.789404:0E:00Z</time></trkpt>
<trkpt lat="19700101" lon="000000"><ele>0</ele><time>N-Unknown-44.990306T4.790139:0E:00Z</time></trkpt>
<trkpt lat="19700101" lon="000000"><ele>0</ele><time>N-Unknown-44.989868T4.790627:0E:00Z</time></trkpt>
<trkpt lat="19700101" lon="000000"><ele>0</ele><time>N-Unknown-44.989647T4.791473:0E:00Z</time></trkpt>
<trkpt lat="19700101" lon="000000"><ele>0</ele><time>N-Unknown-44.987405T4.792104:0E:00Z</time></trkpt>
<trkpt lat="19700101" lon="000000"><ele>0</ele><time>N-Unknown-44.989613T4.794008:0E:00Z</time></trkpt>
<trkpt lat="19700101" lon="000000"><ele>0</ele><time>N-Unknown-44.993059T4.794858:0E:00Z</time></trkpt>
<trkpt lat="19700101" lon="000000"><ele>0</ele><time>N-Unknown-44.994057T4.793475:0E:00Z</time></trkpt>
<trkpt lat="19700101" lon="000000"><ele>0</ele><time>N-Unknown-44.995649T4.792721:0E:00Z</time></trkpt>
<trkpt lat="19700101" lon="000000"><ele>0</ele><time>N-Unknown-44.996161T4.791950:0E:00Z</time></trkpt>
<trkpt lat="19700101" lon="000000"><ele>0</ele><time>N-Unknown-44.996401T4.791263:0E:00Z</time></trkpt>
<trkpt lat="19700101" lon="000000"><ele>0</ele><time>N-Unknown-44.996848T4.790364:0E:00Z</time></trkpt>
<trkpt lat="19700101" lon="000000"><ele>0</ele><time>N-Unknown-44.999770T4.790492:0E:00Z</time></trkpt>
<trkpt lat="19700101" lon="000000"><ele>0</ele><time>N-Unknown-44.998838T4.789912:0E:00Z</time></trkpt>
<trkpt lat="19700101" lon="000000"><ele>0</ele><time>N-Unknown-44.999385T4.787558:0E:00Z</time></trkpt>
<trkpt lat="19700101" lon="000000"><ele>0</ele><time>N-Unknown-44.999659T4.785350:0E:00Z</time></trkpt>
<trkpt lat="19700101" lon="000000"><ele>0</ele><time>N-Unknown-44.998356T4.784246:0E:00Z</time></trkpt>
<trkpt lat="19700101" lon="000000"><ele>0</ele><time>N-Unknown-44.999890T4.783045:0E:00Z</time></trkpt>
<trkpt lat="19700101" lon="000000"><ele>0</ele><time>N-Unknown-44.999357T4.781722:0E:00Z</time></trkpt>
<trkpt lat="19700101" lon="000000"><ele>0</ele><time>N-Unknown-44.999703T4.781325:0E:00Z</time></trkpt>
<trkpt lat="19700101" lon="000000"><ele>0</ele><time>N-Unknown-45.000079T4.777536:0E:00Z</time></trkpt>
<trkpt lat="19700101" lon="000000"><ele>0</ele><time>N-Unknown-45.000364T4.777866:0E:00Z</time></trkpt>
<trkpt lat="19700101" lon="000000"><ele>0</ele><time>N-Unknown-45.000114T4.780043:0E:00Z</time></trkpt>
<trkpt lat="19700101" lon="000000"><ele>0</ele><time>N-Unknown-45.000550T4.781679:0E:00Z</time></trkpt>
<trkpt lat="19700101" lon="000000"><ele>0</ele><time>N-Unknown-45.000796T4.780738:0E:00Z</time></trkpt>
<trkpt lat="19700101" lon="000000"><ele>0</ele><time>N-Unknown-45.001369T4.779241:0E:00Z</time></trkpt>
<trkpt lat="19700101" lon="000000"><ele>0</ele><time>N-Unknown-45.002401T4.779382:0E:00Z</time></trkpt>
<trkpt lat="19700101" lon="000000"><ele>0</ele><time>N-Unknown-45.002888T4.779752:0E:00Z</time></trkpt>
<trkpt lat="19700101" lon="000000"><ele>0</ele><time>N-Unknown-45.003109T4.778905:0E:00Z</time></trkpt>
<trkpt lat="19700101" lon="000000"><ele>0</ele><time>N-Unknown-45.005297T4.778621:0E:00Z</time></trkpt>
<trkpt lat="19700101" lon="000000"><ele>0</ele><time>N-Unknown-45.005332T4.778083:0E:00Z</time></trkpt>
<trkpt lat="19700101" lon="000000"><ele>0</ele><time>N-Unknown-45.007100T4.777495:0E:00Z</time></trkpt>
<trkpt lat="19700101" lon="000000"><ele>0</ele><time>N-Unknown-45.008865T4.781092:0E:00Z</time></trkpt>
<trkpt lat="19700101" lon="000000"><ele>0</ele><time>N-Unknown-45.009730T4.781638:0E:00Z</time></trkpt>
<trkpt lat="19700101" lon="000000"><ele>0</ele><time>N-Unknown-45.009905T4.781867:0E:00Z</time></trkpt>
<trkpt lat="19700101" lon="000000"><ele>0</ele><time>N-Unknown-45.010136T4.781592:0E:00Z</time></trkpt>
<trkpt lat="19700101" lon="000000"><ele>0</ele><time>N-Unknown-45.010382T4.781666:0E:00Z</time></trkpt>
<trkpt lat="19700101" lon="000000"><ele>0</ele><time>N-Unknown-45.010869T4.782036:0E:00Z</time></trkpt>
<trkpt lat="19700101" lon="000000"><ele>0</ele><time>N-Unknown-45.012942T4.783935:0E:00Z</time></trkpt>
<trkpt lat="19700101" lon="000000"><ele>0</ele><time>N-Unknown-45.016154T4.782141:0E:00Z</time></trkpt>
<trkpt lat="19700101" lon="000000"><ele>0</ele><time>N-Unknown-45.016405T4.781962:0E:00Z</time></trkpt>
<trkpt lat="19700101" lon="000000"><ele>0</ele><time>N-Unknown-45.016730T4.781532:0E:00Z</time></trkpt>
<trkpt lat="19700101" lon="000000"><ele>0</ele><time>N-Unknown-45.016767T4.779853:0E:00Z</time></trkpt>
<trkpt lat="19700101" lon="000000"><ele>0</ele><time>N-Unknown-45.016657T4.779721:0E:00Z</time></trkpt>
<trkpt lat="19700101" lon="000000"><ele>0</ele><time>N-Unknown-45.016368T4.779581:0E:00Z</time></trkpt>
<trkpt lat="19700101" lon="000000"><ele>0</ele><time>N-Unknown-45.016284T4.779324:0E:00Z</time></trkpt>
<trkpt lat="19700101" lon="000000"><ele>0</ele><time>N-Unknown-45.016347T4.778470:0E:00Z</time></trkpt>
<trkpt lat="19700101" lon="000000"><ele>0</ele><time>N-Unknown-45.016672T4.776010:0E:00Z</time></trkpt>
<trkpt lat="19700101" lon="000000"><ele>0</ele><time>N-Unknown-45.017043T4.775487:0E:00Z</time></trkpt>
<trkpt lat="19700101" lon="000000"><ele>0</ele><time>N-Unknown-45.017382T4.774424:0E:00Z</time></trkpt>
<trkpt lat="19700101" lon="000000"><ele>0</ele><time>N-Unknown-45.018262T4.773257:0E:00Z</time></trkpt>
<trkpt lat="19700101" lon="000000"><ele>0</ele><time>N-Unknown-45.018962T4.773129:0E:00Z</time></trkpt>
<trkpt lat="19700101" lon="000000"><ele>0</ele><time>N-Unknown-45.019095T4.773230:0E:00Z</time></trkpt>
<trkpt lat="19700101" lon="000000"><ele>0</ele><time>N-Unknown-45.019325T4.773018:0E:00Z</time></trkpt>
<trkpt lat="19700101" lon="000000"><ele>0</ele><time>N-Unknown-45.019207T4.772251:0E:00Z</time></trkpt>
<trkpt lat="19700101" lon="000000"><ele>0</ele><time>N-Unknown-45.020008T4.772635:0E:00Z</time></trkpt>
<trkpt lat="19700101" lon="000000"><ele>0</ele><time>N-Unknown-45.020235T4.772550:0E:00Z</time></trkpt>
<trkpt lat="19700101" lon="000000"><ele>0</ele><time>N-Unknown-45.020446T4.772147:0E:00Z</time></trkpt>
<trkpt lat="19700101" lon="000000"><ele>0</ele><time>N-Unknown-45.020888T4.771500:0E:00Z</time></trkpt>
<trkpt lat="19700101" lon="000000"><ele>0</ele><time>N-Unknown-45.021432T4.770287:0E:00Z</time></trkpt>
<trkpt lat="19700101" lon="000000"><ele>0</ele><time>N-Unknown-45.022503T4.769699:0E:00Z</time></trkpt>
<trkpt lat="19700101" lon="000000"><ele>0</ele><time>N-Unknown-45.022748T4.769773:0E:00Z</time></trkpt>
<trkpt lat="19700101" lon="000000"><ele>0</ele><time>N-Unknown-45.022716T4.770216:0E:00Z</time></trkpt>
<trkpt lat="19700101" lon="000000"><ele>0</ele><time>N-Unknown-45.022270T4.771085:0E:00Z</time></trkpt>
<trkpt lat="19700101" lon="000000"><ele>0</ele><time>N-Unknown-45.022496T4.772046:0E:00Z</time></trkpt>
<trkpt lat="19700101" lon="000000"><ele>0</ele><time>N-Unknown-45.024452T4.773147:0E:00Z</time></trkpt>
<trkpt lat="19700101" lon="000000"><ele>0</ele><time>N-Unknown-45.025210T4.773465:0E:00Z</time></trkpt>
<trkpt lat="19700101" lon="000000"><ele>0</ele><time>N-Unknown-45.025392T4.773347:0E:00Z</time></trkpt>
<trkpt lat="19700101" lon="000000"><ele>0</ele><time>N-Unknown-45.025370T4.773346:0E:00Z</time></trkpt>
<trkpt lat="19700101" lon="000000"><ele>0</ele><time>N-Unknown-45.025699T4.772694:0E:00Z</time></trkpt>
<trkpt lat="19700101" lon="000000"><ele>0</ele><time>N-Unknown-45.026215T4.772748:0E:00Z</time></trkpt>
<trkpt lat="19700101" lon="000000"><ele>0</ele><time>N-Unknown-45.026356T4.772469:0E:00Z</time></trkpt>
<trkpt lat="19700101" lon="000000"><ele>0</ele><time>N-Unknown-45.026624T4.772575:0E:00Z</time></trkpt>
<trkpt lat="19700101" lon="000000"><ele>0</ele><time>N-Unknown-45.026638T4.771942:0E:00Z</time></trkpt>
<trkpt lat="19700101" lon="000000"><ele>0</ele><time>N-Unknown-45.027046T4.770786:0E:00Z</time></trkpt>
<trkpt lat="19700101" lon="000000"><ele>0</ele><time>N-Unknown-45.026520T4.770128:0E:00Z</time></trkpt>
<trkpt lat="19700101" lon="000000"><ele>0</ele><time>N-Unknown-45.026031T4.768838:0E:00Z</time></trkpt>
<trkpt lat="19700101" lon="000000"><ele>0</ele><time>N-Unknown-45.025285T4.768996:0E:00Z</time></trkpt>
<trkpt lat="19700101" lon="000000"><ele>0</ele><time>N-Unknown-45.025157T4.768704:0E:00Z</time></trkpt>
<trkpt lat="19700101" lon="000000"><ele>0</ele><time>N-Unknown-45.025662T4.768251:0E:00Z</time></trkpt>
<trkpt lat="19700101" lon="000000"><ele>0</ele><time>N-Unknown-45.026032T4.767791:0E:00Z</time></trkpt>
<trkpt lat="19700101" lon="000000"><ele>0</ele><time>N-Unknown-45.026418T4.767617:0E:00Z</time></trkpt>
<trkpt lat="19700101" lon="000000"><ele>0</ele><time>N-Unknown-45.027005T4.768531:0E:00Z</time></trkpt>
<trkpt lat="19700101" lon="000000"><ele>0</ele><time>N-Unknown-45.027032T4.769357:0E:00Z</time></trkpt>
<trkpt lat="19700101" lon="000000"><ele>0</ele><time>N-Unknown-45.027473T4.769789:0E:00Z</time></trkpt>
<trkpt lat="19700101" lon="000000"><ele>0</ele><time>N-Unknown-45.028033T4.769909:0E:00Z</time></trkpt>
<trkpt lat="19700101" lon="000000"><ele>0</ele><time>N-Unknown-45.028749T4.771082:0E:00Z</time></trkpt>
<trkpt lat="19700101" lon="000000"><ele>0</ele><time>N-Unknown-45.028975T4.771028:0E:00Z</time></trkpt>
<trkpt lat="19700101" lon="000000"><ele>0</ele><time>N-Unknown-45.029505T4.770481:0E:00Z</time></trkpt>
<trkpt lat="19700101" lon="000000"><ele>0</ele><time>N-Unknown-45.030375T4.770804:0E:00Z</time></trkpt>
<trkpt lat="19700101" lon="000000"><ele>0</ele><time>N-Unknown-45.032532T4.770962:0E:00Z</time></trkpt>
<trkpt lat="19700101" lon="000000"><ele>0</ele><time>N-Unknown-45.032942T4.770726:0E:00Z</time></trkpt>
<trkpt lat="19700101" lon="000000"><ele>0</ele><time>N-Unknown-45.033110T4.770225:0E:00Z</time></trkpt>
<trkpt lat="19700101" lon="000000"><ele>0</ele><time>N-Unknown-45.033448T4.771256:0E:00Z</time></trkpt>
<trkpt lat="19700101" lon="000000"><ele>0</ele><time>N-Unknown-45.034218T4.772051:0E:00Z</time></trkpt>
<trkpt lat="19700101" lon="000000"><ele>0</ele><time>N-Unknown-45.034127T4.773094:0E:00Z</time></trkpt>
<trkpt lat="19700101" lon="000000"><ele>0</ele><time>N-Unknown-45.034458T4.773394:0E:00Z</time></trkpt>
<trkpt lat="19700101" lon="000000"><ele>0</ele><time>N-Unknown-45.035511T4.773599:0E:00Z</time></trkpt>
<trkpt lat="19700101" lon="000000"><ele>0</ele><time>N-Unknown-45.036711T4.773270:0E:00Z</time></trkpt>
<trkpt lat="19700101" lon="000000"><ele>0</ele><time>N-Unknown-45.037336T4.773488:0E:00Z</time></trkpt>
<trkpt lat="19700101" lon="000000"><ele>0</ele><time>N-Unknown-45.037322T4.772059:0E:00Z</time></trkpt>
<trkpt lat="19700101" lon="000000"><ele>0</ele><time>N-Unknown-45.036660T4.770476:0E:00Z</time></trkpt>
<trkpt lat="19700101" lon="000000"><ele>0</ele><time>N-Unknown-45.038090T4.769872:0E:00Z</time></trkpt>
<trkpt lat="19700101" lon="000000"><ele>0</ele><time>N-Unknown-45.038184T4.768670:0E:00Z</time></trkpt>
<trkpt lat="19700101" lon="000000"><ele>0</ele><time>N-Unknown-45.038679T4.768692:0E:00Z</time></trkpt>
<trkpt lat="19700101" lon="000000"><ele>0</ele><time>N-Unknown-45.038473T4.767794:0E:00Z</time></trkpt>
<trkpt lat="19700101" lon="000000"><ele>0</ele><time>N-Unknown-45.038998T4.768483:0E:00Z</time></trkpt>
<trkpt lat="19700101" lon="000000"><ele>0</ele><time>N-Unknown-45.039058T4.768835:0E:00Z</time></trkpt>
<trkpt lat="19700101" lon="000000"><ele>0</ele><time>N-Unknown-45.039047T4.769311:0E:00Z</time></trkpt>
<trkpt lat="19700101" lon="000000"><ele>0</ele><time>N-Unknown-45.038885T4.769526:0E:00Z</time></trkpt>
<trkpt lat="19700101" lon="000000"><ele>0</ele><time>N-Unknown-45.039198T4.769635:0E:00Z</time></trkpt>
<trkpt lat="19700101" lon="000000"><ele>0</ele><time>N-Unknown-45.039205T4.770333:0E:00Z</time></trkpt>
<trkpt lat="19700101" lon="000000"><ele>0</ele><time>N-Unknown-45.039689T4.770830:0E:00Z</time></trkpt>
<trkpt lat="19700101" lon="000000"><ele>0</ele><time>N-Unknown-45.040023T4.771003:0E:00Z</time></trkpt>
<trkpt lat="19700101" lon="000000"><ele>0</ele><time>N-Unknown-45.040216T4.771424:0E:00Z</time></trkpt>
<trkpt lat="19700101" lon="000000"><ele>0</ele><time>N-Unknown-45.040597T4.771473:0E:00Z</time></trkpt>
<trkpt lat="19700101" lon="000000"><ele>0</ele><time>N-Unknown-45.040763T4.772146:0E:00Z</time></trkpt>
<trkpt lat="19700101" lon="000000"><ele>0</ele><time>N-Unknown-45.041767T4.772508:0E:00Z</time></trkpt>
<trkpt lat="19700101" lon="000000"><ele>0</ele><time>N-Unknown-45.042070T4.773060:0E:00Z</time></trkpt>
<trkpt lat="19700101" lon="000000"><ele>0</ele><time>N-Unknown-45.043089T4.772756:0E:00Z</time></trkpt>
<trkpt lat="19700101" lon="000000"><ele>0</ele><time>N-Unknown-45.043119T4.773424:0E:00Z</time></trkpt>
<trkpt lat="19700101" lon="000000"><ele>0</ele><time>N-Unknown-45.044146T4.773786:0E:00Z</time></trkpt>
<trkpt lat="19700101" lon="000000"><ele>0</ele><time>N-Unknown-45.045834T4.774780:0E:00Z</time></trkpt>
<trkpt lat="19700101" lon="000000"><ele>0</ele><time>N-Unknown-45.046021T4.775486:0E:00Z</time></trkpt>
<trkpt lat="19700101" lon="000000"><ele>0</ele><time>N-Unknown-45.047118T4.775757:0E:00Z</time></trkpt>
<trkpt lat="19700101" lon="000000"><ele>0</ele><time>N-Unknown-45.047836T4.775820:0E:00Z</time></trkpt>
<trkpt lat="19700101" lon="000000"><ele>0</ele><time>N-Unknown-45.047402T4.776150:0E:00Z</time></trkpt>
<trkpt lat="19700101" lon="000000"><ele>0</ele><time>N-Unknown-45.045913T4.776307:0E:00Z</time></trkpt>
<trkpt lat="19700101" lon="000000"><ele>0</ele><time>N-Unknown-45.046623T4.776751:0E:00Z</time></trkpt>
<trkpt lat="19700101" lon="000000"><ele>0</ele><time>N-Unknown-45.046941T4.777653:0E:00Z</time></trkpt>
<trkpt lat="19700101" lon="000000"><ele>0</ele><time>N-Unknown-45.046051T4.778217:0E:00Z</time></trkpt>
<trkpt lat="19700101" lon="000000"><ele>0</ele><time>N-Unknown-45.045796T4.777539:0E:00Z</time></trkpt>
<trkpt lat="19700101" lon="000000"><ele>0</ele><time>N-Unknown-45.045230T4.777705:0E:00Z</time></trkpt>
<trkpt lat="19700101" lon="000000"><ele>0</ele><time>N-Unknown-45.045290T4.778057:0E:00Z</time></trkpt>
<trkpt lat="19700101" lon="000000"><ele>0</ele><time>N-Unknown-45.044561T4.778437:0E:00Z</time></trkpt>
<trkpt lat="19700101" lon="000000"><ele>0</ele><time>N-Unknown-45.041999T4.778325:0E:00Z</time></trkpt>
<trkpt lat="19700101" lon="000000"><ele>0</ele><time>N-Unknown-45.041148T4.778161:0E:00Z</time></trkpt>
<trkpt lat="19700101" lon="000000"><ele>0</ele><time>N-Unknown-45.040064T4.778336:0E:00Z</time></trkpt>
<trkpt lat="19700101" lon="000000"><ele>0</ele><time>N-Unknown-45.040435T4.778860:0E:00Z</time></trkpt>
<trkpt lat="19700101" lon="000000"><ele>0</ele><time>N-Unknown-45.040251T4.779042:0E:00Z</time></trkpt>
<trkpt lat="19700101" lon="000000"><ele>0</ele><time>N-Unknown-45.040047T4.779096:0E:00Z</time></trkpt>
<trkpt lat="19700101" lon="000000"><ele>0</ele><time>N-Unknown-45.039382T4.778655:0E:00Z</time></trkpt>
<trkpt lat="19700101" lon="000000"><ele>0</ele><time>N-Unknown-45.037469T4.778666:0E:00Z</time></trkpt>
<trkpt lat="19700101" lon="000000"><ele>0</ele><time>N-Unknown-45.036385T4.778872:0E:00Z</time></trkpt>
<trkpt lat="19700101" lon="000000"><ele>0</ele><time>N-Unknown-45.034582T4.778984:0E:00Z</time></trkpt>
<trkpt lat="19700101" lon="000000"><ele>0</ele><time>N-Unknown-45.034215T4.778301:0E:00Z</time></trkpt>
<trkpt lat="19700101" lon="000000"><ele>0</ele><time>N-Unknown-45.033036T4.777710:0E:00Z</time></trkpt>
<trkpt lat="19700101" lon="000000"><ele>0</ele><time>N-Unknown-45.031711T4.777589:0E:00Z</time></trkpt>
<trkpt lat="19700101" lon="000000"><ele>0</ele><time>N-Unknown-45.030234T4.777207:0E:00Z</time></trkpt>
<trkpt lat="19700101" lon="000000"><ele>0</ele><time>N-Unknown-45.029686T4.776580:0E:00Z</time></trkpt>
<trkpt lat="19700101" lon="000000"><ele>0</ele><time>N-Unknown-45.029695T4.777183:0E:00Z</time></trkpt>
<trkpt lat="19700101" lon="000000"><ele>0</ele><time>N-Unknown-45.029327T4.777548:0E:00Z</time></trkpt>
<trkpt lat="19700101" lon="000000"><ele>0</ele><time>N-Unknown-45.028967T4.777532:0E:00Z</time></trkpt>
<trkpt lat="19700101" lon="000000"><ele>0</ele><time>N-Unknown-45.028757T4.777904:0E:00Z</time></trkpt>
<trkpt lat="19700101" lon="000000"><ele>0</ele><time>N-Unknown-45.028512T4.778813:0E:00Z</time></trkpt>
<trkpt lat="19700101" lon="000000"><ele>0</ele><time>N-Unknown-45.026068T4.778420:0E:00Z</time></trkpt>
<trkpt lat="19700101" lon="000000"><ele>0</ele><time>N-Unknown-45.026008T4.779084:0E:00Z</time></trkpt>
<trkpt lat="19700101" lon="000000"><ele>0</ele><time>N-Unknown-45.025872T4.779141:0E:00Z</time></trkpt>
<trkpt lat="19700101" lon="000000"><ele>0</ele><time>N-Unknown-45.024771T4.779093:0E:00Z</time></trkpt>
<trkpt lat="19700101" lon="000000"><ele>0</ele><time>N-Unknown-45.022955T4.777745:0E:00Z</time></trkpt>
<trkpt lat="19700101" lon="000000"><ele>0</ele><time>N-Unknown-45.022385T4.777085:0E:00Z</time></trkpt>
<trkpt lat="19700101" lon="000000"><ele>0</ele><time>N-Unknown-45.021713T4.776961:0E:00Z</time></trkpt>
<trkpt lat="19700101" lon="000000"><ele>0</ele><time>N-Unknown-45.021140T4.777443:0E:00Z</time></trkpt>
<trkpt lat="19700101" lon="000000"><ele>0</ele><time>N-Unknown-45.021698T4.777626:0E:00Z</time></trkpt>
<trkpt lat="19700101" lon="000000"><ele>0</ele><time>N-Unknown-45.022097T4.778711:0E:00Z</time></trkpt>
<trkpt lat="19700101" lon="000000"><ele>0</ele><time>N-Unknown-45.022309T4.778985:0E:00Z</time></trkpt>
<trkpt lat="19700101" lon="000000"><ele>0</ele><time>N-Unknown-45.022709T4.779245:0E:00Z</time></trkpt>
<trkpt lat="19700101" lon="000000"><ele>0</ele><time>N-Unknown-45.023811T4.781232:0E:00Z</time></trkpt>
<trkpt lat="19700101" lon="000000"><ele>0</ele><time>N-Unknown-45.023986T4.781465:0E:00Z</time></trkpt>
<trkpt lat="19700101" lon="000000"><ele>0</ele><time>N-Unknown-45.024117T4.781760:0E:00Z</time></trkpt>
<trkpt lat="19700101" lon="000000"><ele>0</ele><time>N-Unknown-45.024218T4.781847:0E:00Z</time></trkpt>
<trkpt lat="19700101" lon="000000"><ele>0</ele><time>N-Unknown-45.024758T4.782821:0E:00Z</time></trkpt>
<trkpt lat="19700101" lon="000000"><ele>0</ele><time>N-Unknown-45.024975T4.783025:0E:00Z</time></trkpt>
<trkpt lat="19700101" lon="000000"><ele>0</ele><time>N-Unknown-45.025099T4.783080:0E:00Z</time></trkpt>
<trkpt lat="19700101" lon="000000"><ele>0</ele><time>N-Unknown-45.025228T4.783072:0E:00Z</time></trkpt>
<trkpt lat="19700101" lon="000000"><ele>0</ele><time>N-Unknown-45.025317T4.782846:0E:00Z</time></trkpt>
<trkpt lat="19700101" lon="000000"><ele>0</ele><time>N-Unknown-45.025351T4.782487:0E:00Z</time></trkpt>
<trkpt lat="19700101" lon="000000"><ele>0</ele><time>N-Unknown-45.025489T4.782455:0E:00Z</time></trkpt>
<trkpt lat="19700101" lon="000000"><ele>0</ele><time>N-Unknown-45.025825T4.782698:0E:00Z</time></trkpt>
<trkpt lat="19700101" lon="000000"><ele>0</ele><time>N-Unknown-45.026215T4.782548:0E:00Z</time></trkpt>
<trkpt lat="19700101" lon="000000"><ele>0</ele><time>N-Unknown-45.026511T4.782247:0E:00Z</time></trkpt>
<trkpt lat="19700101" lon="000000"><ele>0</ele><time>N-Unknown-45.026684T4.781450:0E:00Z</time></trkpt>
<trkpt lat="19700101" lon="000000"><ele>0</ele><time>N-Unknown-45.026847T4.781442:0E:00Z</time></trkpt>
<trkpt lat="19700101" lon="000000"><ele>0</ele><time>N-Unknown-45.026988T4.781748:0E:00Z</time></trkpt>
<trkpt lat="19700101" lon="000000"><ele>0</ele><time>N-Unknown-45.027210T4.781711:0E:00Z</time></trkpt>
<trkpt lat="19700101" lon="000000"><ele>0</ele><time>N-Unknown-45.027700T4.781492:0E:00Z</time></trkpt>
<trkpt lat="19700101" lon="000000"><ele>0</ele><time>N-Unknown-45.027927T4.781551:0E:00Z</time></trkpt>
<trkpt lat="19700101" lon="000000"><ele>0</ele><time>N-Unknown-45.028067T4.781703:0E:00Z</time></trkpt>
<trkpt lat="19700101" lon="000000"><ele>0</ele><time>N-Unknown-45.028115T4.781938:0E:00Z</time></trkpt>
<trkpt lat="19700101" lon="000000"><ele>0</ele><time>N-Unknown-45.028043T4.782124:0E:00Z</time></trkpt>
<trkpt lat="19700101" lon="000000"><ele>0</ele><time>N-Unknown-45.027787T4.782383:0E:00Z</time></trkpt>
<trkpt lat="19700101" lon="000000"><ele>0</ele><time>N-Unknown-45.027491T4.783124:0E:00Z</time></trkpt>
<trkpt lat="19700101" lon="000000"><ele>0</ele><time>N-Unknown-45.027455T4.783579:0E:00Z</time></trkpt>
<trkpt lat="19700101" lon="000000"><ele>0</ele><time>N-Unknown-45.027615T4.783848:0E:00Z</time></trkpt>
<trkpt lat="19700101" lon="000000"><ele>0</ele><time>N-Unknown-45.027630T4.784835:0E:00Z</time></trkpt>
<trkpt lat="19700101" lon="000000"><ele>0</ele><time>N-Unknown-45.027508T4.784800:0E:00Z</time></trkpt>
<trkpt lat="19700101" lon="000000"><ele>0</ele><time>N-Unknown-45.027192T4.784528:0E:00Z</time></trkpt>
<trkpt lat="19700101" lon="000000"><ele>0</ele><time>N-Unknown-45.027138T4.784378:0E:00Z</time></trkpt>
<trkpt lat="19700101" lon="000000"><ele>0</ele><time>N-Unknown-45.027064T4.784348:0E:00Z</time></trkpt>
<trkpt lat="19700101" lon="000000"><ele>0</ele><time>N-Unknown-45.027064T4.784597:0E:00Z</time></trkpt>
<trkpt lat="19700101" lon="000000"><ele>0</ele><time>N-Unknown-45.027357T4.785505:0E:00Z</time></trkpt>
<trkpt lat="19700101" lon="000000"><ele>0</ele><time>N-Unknown-45.027040T4.785312:0E:00Z</time></trkpt>
<trkpt lat="19700101" lon="000000"><ele>0</ele><time>N-Unknown-45.026688T4.784787:0E:00Z</time></trkpt>
<trkpt lat="19700101" lon="000000"><ele>0</ele><time>N-Unknown-45.026466T4.784064:0E:00Z</time></trkpt>
<trkpt lat="19700101" lon="000000"><ele>0</ele><time>N-Unknown-45.026499T4.785086:0E:00Z</time></trkpt>
<trkpt lat="19700101" lon="000000"><ele>0</ele><time>N-Unknown-45.026408T4.785120:0E:00Z</time></trkpt>
<trkpt lat="19700101" lon="000000"><ele>0</ele><time>N-Unknown-45.026255T4.784852:0E:00Z</time></trkpt>
<trkpt lat="19700101" lon="000000"><ele>0</ele><time>N-Unknown-45.026244T4.785327:0E:00Z</time></trkpt>
<trkpt lat="19700101" lon="000000"><ele>0</ele><time>N-Unknown-45.026411T4.785928:0E:00Z</time></trkpt>
<trkpt lat="19700101" lon="000000"><ele>0</ele><time>N-Unknown-45.026608T4.786324:0E:00Z</time></trkpt>
<trkpt lat="19700101" lon="000000"><ele>0</ele><time>N-Unknown-45.026842T4.787260:0E:00Z</time></trkpt>
<trkpt lat="19700101" lon="000000"><ele>0</ele><time>N-Unknown-45.027315T4.788216:0E:00Z</time></trkpt>
<trkpt lat="19700101" lon="000000"><ele>0</ele><time>N-Unknown-45.027487T4.789254:0E:00Z</time></trkpt>
<trkpt lat="19700101" lon="000000"><ele>0</ele><time>N-Unknown-45.027688T4.789712:0E:00Z</time></trkpt>
<trkpt lat="19700101" lon="000000"><ele>0</ele><time>N-Unknown-45.027917T4.790659:0E:00Z</time></trkpt>
<trkpt lat="19700101" lon="000000"><ele>0</ele><time>N-Unknown-45.028121T4.791053:0E:00Z</time></trkpt>
<trkpt lat="19700101" lon="000000"><ele>0</ele><time>N-Unknown-45.028291T4.791725:0E:00Z</time></trkpt>
<trkpt lat="19700101" lon="000000"><ele>0</ele><time>N-Unknown-45.028906T4.792893:0E:00Z</time></trkpt>
<trkpt lat="19700101" lon="000000"><ele>0</ele><time>N-Unknown-45.029516T4.793285:0E:00Z</time></trkpt>
<trkpt lat="19700101" lon="000000"><ele>0</ele><time>N-Unknown-45.029851T4.793729:0E:00Z</time></trkpt>
<trkpt lat="19700101" lon="000000"><ele>0</ele><time>N-Unknown-45.030280T4.794098:0E:00Z</time></trkpt>
<trkpt lat="19700101" lon="000000"><ele>0</ele><time>N-Unknown-45.030505T4.794218:0E:00Z</time></trkpt>
<trkpt lat="19700101" lon="000000"><ele>0</ele><time>N-Unknown-45.030590T4.794359:0E:00Z</time></trkpt>
<trkpt lat="19700101" lon="000000"><ele>0</ele><time>N-Unknown-45.030638T4.794354:0E:00Z</time></trkpt>
<trkpt lat="19700101" lon="000000"><ele>0</ele><time>N-Unknown-45.030599T4.794100:0E:00Z</time></trkpt>
<trkpt lat="19700101" lon="000000"><ele>0</ele><time>N-Unknown-45.030705T4.794225:0E:00Z</time></trkpt>
<trkpt lat="19700101" lon="000000"><ele>0</ele><time>N-Unknown-45.030523T4.793950:0E:00Z</time></trkpt>
<trkpt lat="19700101" lon="000000"><ele>0</ele><time>N-Unknown-45.030444T4.793916:0E:00Z</time></trkpt>
<trkpt lat="19700101" lon="000000"><ele>0</ele><time>N-Unknown-45.030477T4.793807:0E:00Z</time></trkpt>
<trkpt lat="19700101" lon="000000"><ele>0</ele><time>N-Unknown-45.030583T4.793756:0E:00Z</time></trkpt>
<trkpt lat="19700101" lon="000000"><ele>0</ele><time>N-Unknown-45.031260T4.794072:0E:00Z</time></trkpt>
<trkpt lat="19700101" lon="000000"><ele>0</ele><time>N-Unknown-45.031823T4.793964:0E:00Z</time></trkpt>
<trkpt lat="19700101" lon="000000"><ele>0</ele><time>N-Unknown-45.032042T4.794040:0E:00Z</time></trkpt>
<trkpt lat="19700101" lon="000000"><ele>0</ele><time>N-Unknown-45.032411T4.794023:0E:00Z</time></trkpt>
<trkpt lat="19700101" lon="000000"><ele>0</ele><time>N-Unknown-45.032534T4.794079:0E:00Z</time></trkpt>
<trkpt lat="19700101" lon="000000"><ele>0</ele><time>N-Unknown-45.032709T4.794287:0E:00Z</time></trkpt>
<trkpt lat="19700101" lon="000000"><ele>0</ele><time>N-Unknown-45.032802T4.794731:0E:00Z</time></trkpt>
<trkpt lat="19700101" lon="000000"><ele>0</ele><time>N-Unknown-45.033167T4.794672:0E:00Z</time></trkpt>
<trkpt lat="19700101" lon="000000"><ele>0</ele><time>N-Unknown-45.033464T4.794448:0E:00Z</time></trkpt>
<trkpt lat="19700101" lon="000000"><ele>0</ele><time>N-Unknown-45.033566T4.794447:0E:00Z</time></trkpt>
<trkpt lat="19700101" lon="000000"><ele>0</ele><time>N-Unknown-45.033940T4.794768:0E:00Z</time></trkpt>
<trkpt lat="19700101" lon="000000"><ele>0</ele><time>N-Unknown-45.033884T4.795014:0E:00Z</time></trkpt>
<trkpt lat="19700101" lon="000000"><ele>0</ele><time>N-Unknown-45.033515T4.795753:0E:00Z</time></trkpt>
<trkpt lat="19700101" lon="000000"><ele>0</ele><time>N-Unknown-45.033411T4.795797:0E:00Z</time></trkpt>
<trkpt lat="19700101" lon="000000"><ele>0</ele><time>N-Unknown-45.033384T4.795915:0E:00Z</time></trkpt>
<trkpt lat="19700101" lon="000000"><ele>0</ele><time>N-Unknown-45.033544T4.796208:0E:00Z</time></trkpt>
<trkpt lat="19700101" lon="000000"><ele>0</ele><time>N-Unknown-45.033755T4.796346:0E:00Z</time></trkpt>
<trkpt lat="19700101" lon="000000"><ele>0</ele><time>N-Unknown-45.034206T4.796408:0E:00Z</time></trkpt>
<trkpt lat="19700101" lon="000000"><ele>0</ele><time>N-Unknown-45.034696T4.796299:0E:00Z</time></trkpt>
<trkpt lat="19700101" lon="000000"><ele>0</ele><time>N-Unknown-45.034832T4.796318:0E:00Z</time></trkpt>
<trkpt lat="19700101" lon="000000"><ele>0</ele><time>N-Unknown-45.034933T4.796395:0E:00Z</time></trkpt>
<trkpt lat="19700101" lon="000000"><ele>0</ele><time>N-Unknown-45.034800T4.796944:0E:00Z</time></trkpt>
<trkpt lat="19700101" lon="000000"><ele>0</ele><time>N-Unknown-45.035868T4.796668:0E:00Z</time></trkpt>
<trkpt lat="19700101" lon="000000"><ele>0</ele><time>N-Unknown-45.036226T4.796612:0E:00Z</time></trkpt>
<trkpt lat="19700101" lon="000000"><ele>0</ele><time>N-Unknown-45.036389T4.796413:0E:00Z</time></trkpt>
<trkpt lat="19700101" lon="000000"><ele>0</ele><time>N-Unknown-45.036492T4.796361:0E:00Z</time></trkpt>
<trkpt lat="19700101" lon="000000"><ele>0</ele><time>N-Unknown-45.036572T4.796107:0E:00Z</time></trkpt>
<trkpt lat="19700101" lon="000000"><ele>0</ele><time>N-Unknown-45.037026T4.795668:0E:00Z</time></trkpt>
<trkpt lat="19700101" lon="000000"><ele>0</ele><time>N-Unknown-45.037088T4.795545:0E:00Z</time></trkpt>
<trkpt lat="19700101" lon="000000"><ele>0</ele><time>N-Unknown-45.037201T4.795515:0E:00Z</time></trkpt>
<trkpt lat="19700101" lon="000000"><ele>0</ele><time>N-Unknown-45.037313T4.795617:0E:00Z</time></trkpt>
<trkpt lat="19700101" lon="000000"><ele>0</ele><time>N-Unknown-45.037352T4.795738:0E:00Z</time></trkpt>
<trkpt lat="19700101" lon="000000"><ele>0</ele><time>N-Unknown-45.037265T4.796001:0E:00Z</time></trkpt>
<trkpt lat="19700101" lon="000000"><ele>0</ele><time>N-Unknown-45.037317T4.796129:0E:00Z</time></trkpt>
<trkpt lat="19700101" lon="000000"><ele>0</ele><time>N-Unknown-45.037435T4.796166:0E:00Z</time></trkpt>
<trkpt lat="19700101" lon="000000"><ele>0</ele><time>N-Unknown-45.038146T4.795978:0E:00Z</time></trkpt>
<trkpt lat="19700101" lon="000000"><ele>0</ele><time>N-Unknown-45.038375T4.795643:0E:00Z</time></trkpt>
<trkpt lat="19700101" lon="000000"><ele>0</ele><time>N-Unknown-45.038618T4.795540:0E:00Z</time></trkpt>
<trkpt lat="19700101" lon="000000"><ele>0</ele><time>N-Unknown-45.038933T4.795507:0E:00Z</time></trkpt>
<trkpt lat="19700101" lon="000000"><ele>0</ele><time>N-Unknown-45.039371T4.795673:0E:00Z</time></trkpt>
<trkpt lat="19700101" lon="000000"><ele>0</ele><time>N-Unknown-45.039752T4.796495:0E:00Z</time></trkpt>
<trkpt lat="19700101" lon="000000"><ele>0</ele><time>N-Unknown-45.039788T4.796971:0E:00Z</time></trkpt>
<trkpt lat="19700101" lon="000000"><ele>0</ele><time>N-Unknown-45.040055T4.797539:0E:00Z</time></trkpt>
<trkpt lat="19700101" lon="000000"><ele>0</ele><time>N-Unknown-45.040422T4.797723:0E:00Z</time></trkpt>
<trkpt lat="19700101" lon="000000"><ele>0</ele><time>N-Unknown-45.040637T4.798380:0E:00Z</time></trkpt>
<trkpt lat="19700101" lon="000000"><ele>0</ele><time>N-Unknown-45.040669T4.798916:0E:00Z</time></trkpt>
<trkpt lat="19700101" lon="000000"><ele>0</ele><time>N-Unknown-45.040536T4.799123:0E:00Z</time></trkpt>
<trkpt lat="19700101" lon="000000"><ele>0</ele><time>N-Unknown-45.040371T4.799216:0E:00Z</time></trkpt>
<trkpt lat="19700101" lon="000000"><ele>0</ele><time>N-Unknown-45.040323T4.799349:0E:00Z</time></trkpt>
<trkpt lat="19700101" lon="000000"><ele>0</ele><time>N-Unknown-45.040385T4.799441:0E:00Z</time></trkpt>
<trkpt lat="19700101" lon="000000"><ele>0</ele><time>N-Unknown-45.040696T4.799586:0E:00Z</time></trkpt>
<trkpt lat="19700101" lon="000000"><ele>0</ele><time>N-Unknown-45.040886T4.799541:0E:00Z</time></trkpt>
<trkpt lat="19700101" lon="000000"><ele>0</ele><time>N-Unknown-45.040980T4.799562:0E:00Z</time></trkpt>
<trkpt lat="19700101" lon="000000"><ele>0</ele><time>N-Unknown-45.041060T4.799970:0E:00Z</time></trkpt>
<trkpt lat="19700101" lon="000000"><ele>0</ele><time>N-Unknown-45.041353T4.799822:0E:00Z</time></trkpt>
<trkpt lat="19700101" lon="000000"><ele>0</ele><time>N-Unknown-45.041476T4.799928:0E:00Z</time></trkpt>
<trkpt lat="19700101" lon="000000"><ele>0</ele><time>N-Unknown-45.041526T4.800115:0E:00Z</time></trkpt>
<trkpt lat="19700101" lon="000000"><ele>0</ele><time>N-Unknown-45.041883T4.800567:0E:00Z</time></trkpt>
<trkpt lat="19700101" lon="000000"><ele>0</ele><time>N-Unknown-45.042152T4.800730:0E:00Z</time></trkpt>
<trkpt lat="19700101" lon="000000"><ele>0</ele><time>N-Unknown-45.042424T4.800802:0E:00Z</time></trkpt>
<trkpt lat="19700101" lon="000000"><ele>0</ele><time>N-Unknown-45.042907T4.800820:0E:00Z</time></trkpt>
<trkpt lat="19700101" lon="000000"><ele>0</ele><time>N-Unknown-45.042989T4.800915:0E:00Z</time></trkpt>
<trkpt lat="19700101" lon="000000"><ele>0</ele><time>N-Unknown-45.042919T4.801425:0E:00Z</time></trkpt>
<trkpt lat="19700101" lon="000000"><ele>0</ele><time>N-Unknown-45.042848T4.801516:0E:00Z</time></trkpt>
<trkpt lat="19700101" lon="000000"><ele>0</ele><time>N-Unknown-45.042854T4.802244:0E:00Z</time></trkpt>
<trkpt lat="19700101" lon="000000"><ele>0</ele><time>N-Unknown-45.042776T4.802337:0E:00Z</time></trkpt>
<trkpt lat="19700101" lon="000000"><ele>0</ele><time>N-Unknown-45.042680T4.802364:0E:00Z</time></trkpt>
<trkpt lat="19700101" lon="000000"><ele>0</ele><time>N-Unknown-45.042481T4.802304:0E:00Z</time></trkpt>
<trkpt lat="19700101" lon="000000"><ele>0</ele><time>N-Unknown-45.042330T4.802507:0E:00Z</time></trkpt>
<trkpt lat="19700101" lon="000000"><ele>0</ele><time>N-Unknown-45.042107T4.802574:0E:00Z</time></trkpt>
<trkpt lat="19700101" lon="000000"><ele>0</ele><time>N-Unknown-45.042018T4.802901:0E:00Z</time></trkpt>
<trkpt lat="19700101" lon="000000"><ele>0</ele><time>N-Unknown-45.042067T4.803204:0E:00Z</time></trkpt>
<trkpt lat="19700101" lon="000000"><ele>0</ele><time>N-Unknown-45.042007T4.803345:0E:00Z</time></trkpt>
<trkpt lat="19700101" lon="000000"><ele>0</ele><time>N-Unknown-45.041227T4.803848:0E:00Z</time></trkpt>
<trkpt lat="19700101" lon="000000"><ele>0</ele><time>N-Unknown-45.040964T4.804914:0E:00Z</time></trkpt>
<trkpt lat="19700101" lon="000000"><ele>0</ele><time>N-Unknown-45.040630T4.805173:0E:00Z</time></trkpt>
<trkpt lat="19700101" lon="000000"><ele>0</ele><time>N-Unknown-45.040589T4.805321:0E:00Z</time></trkpt>
<trkpt lat="19700101" lon="000000"><ele>0</ele><time>N-Unknown-45.040093T4.805770:0E:00Z</time></trkpt>
<trkpt lat="19700101" lon="000000"><ele>0</ele><time>N-Unknown-45.040106T4.807301:0E:00Z</time></trkpt>
<trkpt lat="19700101" lon="000000"><ele>0</ele><time>N-Unknown-45.040370T4.808118:0E:00Z</time></trkpt>
<trkpt lat="19700101" lon="000000"><ele>0</ele><time>N-Unknown-45.040605T4.809204:0E:00Z</time></trkpt>
<trkpt lat="19700101" lon="000000"><ele>0</ele><time>N-Unknown-45.041163T4.810045:0E:00Z</time></trkpt>
<trkpt lat="19700101" lon="000000"><ele>0</ele><time>N-Unknown-45.041423T4.810108:0E:00Z</time></trkpt>
<trkpt lat="19700101" lon="000000"><ele>0</ele><time>N-Unknown-45.041568T4.810207:0E:00Z</time></trkpt>
<trkpt lat="19700101" lon="000000"><ele>0</ele><time>N-Unknown-45.041797T4.810536:0E:00Z</time></trkpt>
<trkpt lat="19700101" lon="000000"><ele>0</ele><time>N-Unknown-45.041977T4.810671:0E:00Z</time></trkpt>
<trkpt lat="19700101" lon="000000"><ele>0</ele><time>N-Unknown-45.042142T4.810584:0E:00Z</time></trkpt>
<trkpt lat="19700101" lon="000000"><ele>0</ele><time>N-Unknown-45.042268T4.810595:0E:00Z</time></trkpt>
<trkpt lat="19700101" lon="000000"><ele>0</ele><time>N-Unknown-45.042368T4.810657:0E:00Z</time></trkpt>
<trkpt lat="19700101" lon="000000"><ele>0</ele><time>N-Unknown-45.042616T4.810632:0E:00Z</time></trkpt>
<trkpt lat="19700101" lon="000000"><ele>0</ele><time>N-Unknown-45.042935T4.810794:0E:00Z</time></trkpt>
<trkpt lat="19700101" lon="000000"><ele>0</ele><time>N-Unknown-45.043008T4.810949:0E:00Z</time></trkpt>
<trkpt lat="19700101" lon="000000"><ele>0</ele><time>N-Unknown-45.042947T4.811233:0E:00Z</time></trkpt>
<trkpt lat="19700101" lon="000000"><ele>0</ele><time>N-Unknown-45.043059T4.811465:0E:00Z</time></trkpt>
<trkpt lat="19700101" lon="000000"><ele>0</ele><time>N-Unknown-45.043404T4.811784:0E:00Z</time></trkpt>
<trkpt lat="19700101" lon="000000"><ele>0</ele><time>N-Unknown-45.043676T4.812472:0E:00Z</time></trkpt>
<trkpt lat="19700101" lon="000000"><ele>0</ele><time>N-Unknown-45.043772T4.812546:0E:00Z</time></trkpt>
<trkpt lat="19700101" lon="000000"><ele>0</ele><time>N-Unknown-45.043895T4.812563:0E:00Z</time></trkpt>
<trkpt lat="19700101" lon="000000"><ele>0</ele><time>N-Unknown-45.043971T4.812643:0E:00Z</time></trkpt>
<trkpt lat="19700101" lon="000000"><ele>0</ele><time>N-Unknown-45.043874T4.812796:0E:00Z</time></trkpt>
<trkpt lat="19700101" lon="000000"><ele>0</ele><time>N-Unknown-45.043754T4.812835:0E:00Z</time></trkpt>
<trkpt lat="19700101" lon="000000"><ele>0</ele><time>N-Unknown-45.043423T4.812641:0E:00Z</time></trkpt>
<trkpt lat="19700101" lon="000000"><ele>0</ele><time>N-Unknown-45.043449T4.813083:0E:00Z</time></trkpt>
<trkpt lat="19700101" lon="000000"><ele>0</ele><time>N-Unknown-45.043535T4.813222:0E:00Z</time></trkpt>
<trkpt lat="19700101" lon="000000"><ele>0</ele><time>N-Unknown-45.044024T4.813405:0E:00Z</time></trkpt>
<trkpt lat="19700101" lon="000000"><ele>0</ele><time>N-Unknown-45.044215T4.813353:0E:00Z</time></trkpt>
<trkpt lat="19700101" lon="000000"><ele>0</ele><time>N-Unknown-45.044088T4.813626:0E:00Z</time></trkpt>
<trkpt lat="19700101" lon="000000"><ele>0</ele><time>N-Unknown-45.043995T4.813697:0E:00Z</time></trkpt>
<trkpt lat="19700101" lon="000000"><ele>0</ele><time>N-Unknown-45.043677T4.813664:0E:00Z</time></trkpt>
<trkpt lat="19700101" lon="000000"><ele>0</ele><time>N-Unknown-45.044206T4.814231:0E:00Z</time></trkpt>
<trkpt lat="19700101" lon="000000"><ele>0</ele><time>N-Unknown-45.044379T4.814661:0E:00Z</time></trkpt>
<trkpt lat="19700101" lon="000000"><ele>0</ele><time>N-Unknown-45.044445T4.815925:0E:00Z</time></trkpt>
<trkpt lat="19700101" lon="000000"><ele>0</ele><time>N-Unknown-45.044546T4.816016:0E:00Z</time></trkpt>
<trkpt lat="19700101" lon="000000"><ele>0</ele><time>N-Unknown-45.044648T4.816006:0E:00Z</time></trkpt>
<trkpt lat="19700101" lon="000000"><ele>0</ele><time>N-Unknown-45.044806T4.815825:0E:00Z</time></trkpt>
<trkpt lat="19700101" lon="000000"><ele>0</ele><time>N-Unknown-45.045032T4.815408:0E:00Z</time></trkpt>
<trkpt lat="19700101" lon="000000"><ele>0</ele><time>N-Unknown-45.044896T4.814415:0E:00Z</time></trkpt>
<trkpt lat="19700101" lon="000000"><ele>0</ele><time>N-Unknown-45.044956T4.814300:0E:00Z</time></trkpt>
<trkpt lat="19700101" lon="000000"><ele>0</ele><time>N-Unknown-45.045519T4.815568:0E:00Z</time></trkpt>
<trkpt lat="19700101" lon="000000"><ele>0</ele><time>N-Unknown-45.045469T4.815993:0E:00Z</time></trkpt>
<trkpt lat="19700101" lon="000000"><ele>0</ele><time>N-Unknown-45.045693T4.816448:0E:00Z</time></trkpt>
<trkpt lat="19700101" lon="000000"><ele>0</ele><time>N-Unknown-45.045521T4.816896:0E:00Z</time></trkpt>
<trkpt lat="19700101" lon="000000"><ele>0</ele><time>N-Unknown-45.045379T4.817064:0E:00Z</time></trkpt>
<trkpt lat="19700101" lon="000000"><ele>0</ele><time>N-Unknown-45.045583T4.817121:0E:00Z</time></trkpt>
<trkpt lat="19700101" lon="000000"><ele>0</ele><time>N-Unknown-45.045953T4.817135:0E:00Z</time></trkpt>
<trkpt lat="19700101" lon="000000"><ele>0</ele><time>N-Unknown-45.046168T4.817307:0E:00Z</time></trkpt>
<trkpt lat="19700101" lon="000000"><ele>0</ele><time>N-Unknown-45.046563T4.817790:0E:00Z</time></trkpt>
<trkpt lat="19700101" lon="000000"><ele>0</ele><time>N-Unknown-45.046989T4.818540:0E:00Z</time></trkpt>
<trkpt lat="19700101" lon="000000"><ele>0</ele><time>N-Unknown-45.047084T4.818576:0E:00Z</time></trkpt>
<trkpt lat="19700101" lon="000000"><ele>0</ele><time>N-Unknown-45.047344T4.818267:0E:00Z</time></trkpt>
<trkpt lat="19700101" lon="000000"><ele>0</ele><time>N-Unknown-45.047572T4.817688:0E:00Z</time></trkpt>
<trkpt lat="19700101" lon="000000"><ele>0</ele><time>N-Unknown-45.047392T4.817018:0E:00Z</time></trkpt>
<trkpt lat="19700101" lon="000000"><ele>0</ele><time>N-Unknown-45.047708T4.816990:0E:00Z</time></trkpt>
<trkpt lat="19700101" lon="000000"><ele>0</ele><time>N-Unknown-45.047853T4.817105:0E:00Z</time></trkpt>
<trkpt lat="19700101" lon="000000"><ele>0</ele><time>N-Unknown-45.048084T4.818056:0E:00Z</time></trkpt>
<trkpt lat="19700101" lon="000000"><ele>0</ele><time>N-Unknown-45.048069T4.818269:0E:00Z</time></trkpt>
<trkpt lat="19700101" lon="000000"><ele>0</ele><time>N-Unknown-45.047899T4.818574:0E:00Z</time></trkpt>
<trkpt lat="19700101" lon="000000"><ele>0</ele><time>N-Unknown-45.047740T4.819646:0E:00Z</time></trkpt>
<trkpt lat="19700101" lon="000000"><ele>0</ele><time>N-Unknown-45.048523T4.821494:0E:00Z</time></trkpt>
<trkpt lat="19700101" lon="000000"><ele>0</ele><time>N-Unknown-45.048542T4.821731:0E:00Z</time></trkpt>
<trkpt lat="19700101" lon="000000"><ele>0</ele><time>N-Unknown-45.048375T4.822435:0E:00Z</time></trkpt>
<trkpt lat="19700101" lon="000000"><ele>0</ele><time>N-Unknown-45.047022T4.824597:0E:00Z</time></trkpt>
<trkpt lat="19700101" lon="000000"><ele>0</ele><time>N-Unknown-45.047485T4.825030:0E:00Z</time></trkpt>
<trkpt lat="19700101" lon="000000"><ele>0</ele><time>N-Unknown-45.047452T4.825473:0E:00Z</time></trkpt>
<trkpt lat="19700101" lon="000000"><ele>0</ele><time>N-Unknown-45.047651T4.825640:0E:00Z</time></trkpt>
<trkpt lat="19700101" lon="000000"><ele>0</ele><time>N-Unknown-45.047763T4.825677:0E:00Z</time></trkpt>
<trkpt lat="19700101" lon="000000"><ele>0</ele><time>N-Unknown-45.048258T4.824652:0E:00Z</time></trkpt>
<trkpt lat="19700101" lon="000000"><ele>0</ele><time>N-Unknown-45.048451T4.824089:0E:00Z</time></trkpt>
<trkpt lat="19700101" lon="000000"><ele>0</ele><time>N-Unknown-45.048726T4.823848:0E:00Z</time></trkpt>
<trkpt lat="19700101" lon="000000"><ele>0</ele><time>N-Unknown-45.049271T4.823650:0E:00Z</time></trkpt>
<trkpt lat="19700101" lon="000000"><ele>0</ele><time>N-Unknown-45.049472T4.823690:0E:00Z</time></trkpt>
<trkpt lat="19700101" lon="000000"><ele>0</ele><time>N-Unknown-45.049761T4.823862:0E:00Z</time></trkpt>
<trkpt lat="19700101" lon="000000"><ele>0</ele><time>N-Unknown-45.049255T4.824347:0E:00Z</time></trkpt>
<trkpt lat="19700101" lon="000000"><ele>0</ele><time>N-Unknown-45.048967T4.825128:0E:00Z</time></trkpt>
<trkpt lat="19700101" lon="000000"><ele>0</ele><time>N-Unknown-45.048885T4.825791:0E:00Z</time></trkpt>
<trkpt lat="19700101" lon="000000"><ele>0</ele><time>N-Unknown-45.049042T4.825798:0E:00Z</time></trkpt>
<trkpt lat="19700101" lon="000000"><ele>0</ele><time>N-Unknown-45.049118T4.825452:0E:00Z</time></trkpt>
<trkpt lat="19700101" lon="000000"><ele>0</ele><time>N-Unknown-45.049224T4.825742:0E:00Z</time></trkpt>
<trkpt lat="19700101" lon="000000"><ele>0</ele><time>N-Unknown-45.049477T4.825468:0E:00Z</time></trkpt>
<trkpt lat="19700101" lon="000000"><ele>0</ele><time>N-Unknown-45.051644T4.825184:0E:00Z</time></trkpt>
<trkpt lat="19700101" lon="000000"><ele>0</ele><time>N-Unknown-45.052151T4.825651:0E:00Z</time></trkpt>
<trkpt lat="19700101" lon="000000"><ele>0</ele><time>N-Unknown-45.052667T4.825674:0E:00Z</time></trkpt>
<trkpt lat="19700101" lon="000000"><ele>0</ele><time>N-Unknown-45.053118T4.825631:0E:00Z</time></trkpt>
<trkpt lat="19700101" lon="000000"><ele>0</ele><time>N-Unknown-45.054282T4.824921:0E:00Z</time></trkpt>
<trkpt lat="19700101" lon="000000"><ele>0</ele><time>N-Unknown-45.054996T4.825175:0E:00Z</time></trkpt>
<trkpt lat="19700101" lon="000000"><ele>0</ele><time>N-Unknown-45.055463T4.825418:0E:00Z</time></trkpt>
<trkpt lat="19700101" lon="000000"><ele>0</ele><time>N-Unknown-45.056051T4.825286:0E:00Z</time></trkpt>
<trkpt lat="19700101" lon="000000"><ele>0</ele><time>N-Unknown-45.056256T4.825200:0E:00Z</time></trkpt>
<trkpt lat="19700101" lon="000000"><ele>0</ele><time>N-Unknown-45.056464T4.824923:0E:00Z</time></trkpt>
<trkpt lat="19700101" lon="000000"><ele>0</ele><time>N-Unknown-45.056623T4.824867:0E:00Z</time></trkpt>
<trkpt lat="19700101" lon="000000"><ele>0</ele><time>N-Unknown-45.056648T4.824741:0E:00Z</time></trkpt>
<trkpt lat="19700101" lon="000000"><ele>0</ele><time>N-Unknown-45.057078T4.824633:0E:00Z</time></trkpt>
<trkpt lat="19700101" lon="000000"><ele>0</ele><time>N-Unknown-45.057800T4.824538:0E:00Z</time></trkpt>
<trkpt lat="19700101" lon="000000"><ele>0</ele><time>N-Unknown-45.058437T4.824249:0E:00Z</time></trkpt>
<trkpt lat="19700101" lon="000000"><ele>0</ele><time>N-Unknown-45.058888T4.824174:0E:00Z</time></trkpt>
<trkpt lat="19700101" lon="000000"><ele>0</ele><time>N-Unknown-45.059441T4.823596:0E:00Z</time></trkpt>
<trkpt lat="19700101" lon="000000"><ele>0</ele><time>N-Unknown-45.059873T4.823393:0E:00Z</time></trkpt>
<trkpt lat="19700101" lon="000000"><ele>0</ele><time>N-Unknown-45.060523T4.823517:0E:00Z</time></trkpt>
<trkpt lat="19700101" lon="000000"><ele>0</ele><time>N-Unknown-45.060754T4.823274:0E:00Z</time></trkpt>
<trkpt lat="19700101" lon="000000"><ele>0</ele><time>N-Unknown-45.060758T4.823073:0E:00Z</time></trkpt>
<trkpt lat="19700101" lon="000000"><ele>0</ele><time>N-Unknown-45.060846T4.822989:0E:00Z</time></trkpt>
<trkpt lat="19700101" lon="000000"><ele>0</ele><time>N-Unknown-45.061572T4.823085:0E:00Z</time></trkpt>
<trkpt lat="19700101" lon="000000"><ele>0</ele><time>N-Unknown-45.062064T4.823251:0E:00Z</time></trkpt>
<trkpt lat="19700101" lon="000000"><ele>0</ele><time>N-Unknown-45.062293T4.823403:0E:00Z</time></trkpt>
<trkpt lat="19700101" lon="000000"><ele>0</ele><time>N-Unknown-45.062402T4.823425:0E:00Z</time></trkpt>
<trkpt lat="19700101" lon="000000"><ele>0</ele><time>N-Unknown-45.062578T4.823328:0E:00Z</time></trkpt>
<trkpt lat="19700101" lon="000000"><ele>0</ele><time>N-Unknown-45.062851T4.822987:0E:00Z</time></trkpt>
<trkpt lat="19700101" lon="000000"><ele>0</ele><time>N-Unknown-45.063089T4.822932:0E:00Z</time></trkpt>
<trkpt lat="19700101" lon="000000"><ele>0</ele><time>N-Unknown-45.063222T4.822980:0E:00Z</time></trkpt>
<trkpt lat="19700101" lon="000000"><ele>0</ele><time>N-Unknown-45.063582T4.823768:0E:00Z</time></trkpt>
<trkpt lat="19700101" lon="000000"><ele>0</ele><time>N-Unknown-45.064284T4.824525:0E:00Z</time></trkpt>
<trkpt lat="19700101" lon="000000"><ele>0</ele><time>N-Unknown-45.064301T4.824661:0E:00Z</time></trkpt>
<trkpt lat="19700101" lon="000000"><ele>0</ele><time>N-Unknown-45.063386T4.824828:0E:00Z</time></trkpt>
<trkpt lat="19700101" lon="000000"><ele>0</ele><time>N-Unknown-45.063380T4.825469:0E:00Z</time></trkpt>
<trkpt lat="19700101" lon="000000"><ele>0</ele><time>N-Unknown-45.063053T4.825984:0E:00Z</time></trkpt>
<trkpt lat="19700101" lon="000000"><ele>0</ele><time>N-Unknown-45.063096T4.826172:0E:00Z</time></trkpt>
<trkpt lat="19700101" lon="000000"><ele>0</ele><time>N-Unknown-45.063764T4.826487:0E:00Z</time></trkpt>
<trkpt lat="19700101" lon="000000"><ele>0</ele><time>N-Unknown-45.064349T4.826482:0E:00Z</time></trkpt>
<trkpt lat="19700101" lon="000000"><ele>0</ele><time>N-Unknown-45.064771T4.826723:0E:00Z</time></trkpt>
<trkpt lat="19700101" lon="000000"><ele>0</ele><time>N-Unknown-45.064968T4.826954:0E:00Z</time></trkpt>
<trkpt lat="19700101" lon="000000"><ele>0</ele><time>N-Unknown-45.065136T4.826485:0E:00Z</time></trkpt>
<trkpt lat="19700101" lon="000000"><ele>0</ele><time>N-Unknown-45.065658T4.826318:0E:00Z</time></trkpt>
<trkpt lat="19700101" lon="000000"><ele>0</ele><time>N-Unknown-45.065715T4.825781:0E:00Z</time></trkpt>
<trkpt lat="19700101" lon="000000"><ele>0</ele><time>N-Unknown-45.065950T4.825315:0E:00Z</time></trkpt>
<trkpt lat="19700101" lon="000000"><ele>0</ele><time>N-Unknown-45.066314T4.825141:0E:00Z</time></trkpt>
<trkpt lat="19700101" lon="000000"><ele>0</ele><time>N-Unknown-45.066738T4.825287:0E:00Z</time></trkpt>
<trkpt lat="19700101" lon="000000"><ele>0</ele><time>N-Unknown-45.066310T4.825300:0E:00Z</time></trkpt>
<trkpt lat="19700101" lon="000000"><ele>0</ele><time>N-Unknown-45.066051T4.825828:0E:00Z</time></trkpt>
<trkpt lat="19700101" lon="000000"><ele>0</ele><time>N-Unknown-45.065857T4.826454:0E:00Z</time></trkpt>
<trkpt lat="19700101" lon="000000"><ele>0</ele><time>N-Unknown-45.065820T4.827119:0E:00Z</time></trkpt>
<trkpt lat="19700101" lon="000000"><ele>0</ele><time>N-Unknown-45.065881T4.827408:0E:00Z</time></trkpt>
<trkpt lat="19700101" lon="000000"><ele>0</ele><time>N-Unknown-45.066012T4.827572:0E:00Z</time></trkpt>
<trkpt lat="19700101" lon="000000"><ele>0</ele><time>N-Unknown-45.066258T4.827647:0E:00Z</time></trkpt>
<trkpt lat="19700101" lon="000000"><ele>0</ele><time>N-Unknown-45.066318T4.827967:0E:00Z</time></trkpt>
<trkpt lat="19700101" lon="000000"><ele>0</ele><time>N-Unknown-45.065884T4.829281:0E:00Z</time></trkpt>
<trkpt lat="19700101" lon="000000"><ele>0</ele><time>N-Unknown-45.065971T4.829380:0E:00Z</time></trkpt>
<trkpt lat="19700101" lon="000000"><ele>0</ele><time>N-Unknown-45.066271T4.829076:0E:00Z</time></trkpt>
<trkpt lat="19700101" lon="000000"><ele>0</ele><time>N-Unknown-45.066734T4.828462:0E:00Z</time></trkpt>
<trkpt lat="19700101" lon="000000"><ele>0</ele><time>N-Unknown-45.066683T4.827729:0E:00Z</time></trkpt>
<trkpt lat="19700101" lon="000000"><ele>0</ele><time>N-Unknown-45.066859T4.827928:0E:00Z</time></trkpt>
<trkpt lat="19700101" lon="000000"><ele>0</ele><time>N-Unknown-45.067138T4.828543:0E:00Z</time></trkpt>
<trkpt lat="19700101" lon="000000"><ele>0</ele><time>N-Unknown-45.067242T4.827913:0E:00Z</time></trkpt>
<trkpt lat="19700101" lon="000000"><ele>0</ele><time>N-Unknown-45.067536T4.827831:0E:00Z</time></trkpt>
<trkpt lat="19700101" lon="000000"><ele>0</ele><time>N-Unknown-45.068002T4.828106:0E:00Z</time></trkpt>
<trkpt lat="19700101" lon="000000"><ele>0</ele><time>N-Unknown-45.068274T4.828054:0E:00Z</time></trkpt>
<trkpt lat="19700101" lon="000000"><ele>0</ele><time>N-Unknown-45.068578T4.827528:0E:00Z</time></trkpt>
<trkpt lat="19700101" lon="000000"><ele>0</ele><time>N-Unknown-45.069254T4.827463:0E:00Z</time></trkpt>
<trkpt lat="19700101" lon="000000"><ele>0</ele><time>N-Unknown-45.069506T4.827284:0E:00Z</time></trkpt>
<trkpt lat="19700101" lon="000000"><ele>0</ele><time>N-Unknown-45.069401T4.826962:0E:00Z</time></trkpt>
<trkpt lat="19700101" lon="000000"><ele>0</ele><time>N-Unknown-45.069578T4.827065:0E:00Z</time></trkpt>
<trkpt lat="19700101" lon="000000"><ele>0</ele><time>N-Unknown-45.069515T4.826872:0E:00Z</time></trkpt>
<trkpt lat="19700101" lon="000000"><ele>0</ele><time>N-Unknown-45.069627T4.826908:0E:00Z</time></trkpt>
<trkpt lat="19700101" lon="000000"><ele>0</ele><time>N-Unknown-45.069607T4.826780:0E:00Z</time></trkpt>
<trkpt lat="19700101" lon="000000"><ele>0</ele><time>N-Unknown-45.069854T4.826791:0E:00Z</time></trkpt>
<trkpt lat="19700101" lon="000000"><ele>0</ele><time>N-Unknown-45.069705T4.826436:0E:00Z</time></trkpt>
<trkpt lat="19700101" lon="000000"><ele>0</ele><time>N-Unknown-45.069731T4.826278:0E:00Z</time></trkpt>
<trkpt lat="19700101" lon="000000"><ele>0</ele><time>N-Unknown-45.069939T4.826033:0E:00Z</time></trkpt>
<trkpt lat="19700101" lon="000000"><ele>0</ele><time>N-Unknown-45.070282T4.826779:0E:00Z</time></trkpt>
<trkpt lat="19700101" lon="000000"><ele>0</ele><time>N-Unknown-45.070266T4.827477:0E:00Z</time></trkpt>
<trkpt lat="19700101" lon="000000"><ele>0</ele><time>N-Unknown-45.068739T4.829377:0E:00Z</time></trkpt>
<trkpt lat="19700101" lon="000000"><ele>0</ele><time>N-Unknown-45.068174T4.830463:0E:00Z</time></trkpt>
</trkseg></trk></gpx>